Time,TemperatureF,DewpointF,PressureIn,WindDirection,WindDirectionDegrees,WindSpeedMPH,WindSpeedGustMPH,Humidity,HourlyPrecipIn,Conditions,Clouds,dailyrainin,SoftwareType,DateUTC
2013-02-20 00:03:00,49.8,30.9,-100.00,ESE,103,5.0,12.0,48,0.00,,,0.00,meteohub,2013-02-20 06:03:00,
2013-02-20 00:04:00,49.8,30.9,-100.00,East,101,10.0,12.0,48,0.00,,,0.00,meteohub,2013-02-20 06:04:00,
2013-02-20 00:08:00,49.8,30.9,-100.00,East,100,9.0,12.0,48,0.00,,,0.00,meteohub,2013-02-20 06:08:00,
2013-02-20 00:09:00,49.8,30.9,-100.00,East,100,7.0,12.0,48,0.00,,,0.00,meteohub,2013-02-20 06:09:00,
2013-02-20 00:14:00,49.8,30.9,-100.00,East,97,6.0,12.0,48,0.00,,,0.00,meteohub,2013-02-20 06:14:00,
2013-02-20 00:15:00,50.2,30.7,-100.00,East,98,6.0,12.0,47,0.00,,,0.00,meteohub,2013-02-20 06:15:00,
2013-02-20 00:19:00,50.2,30.7,-100.00,East,101,5.0,11.0,47,0.00,,,0.00,meteohub,2013-02-20 06:19:00,
2013-02-20 00:20:00,50.2,30.2,-100.00,ESE,106,7.0,11.0,46,0.00,,,0.00,meteohub,2013-02-20 06:20:00,
2013-02-20 00:24:00,50.2,30.2,-100.00,ESE,106,6.0,11.0,46,0.00,,,0.00,meteohub,2013-02-20 06:24:00,
2013-02-20 00:25:00,50.2,30.7,-100.00,ESE,107,6.0,11.0,47,0.00,,,0.00,meteohub,2013-02-20 06:25:00,
2013-02-20 00:26:00,50.2,30.2,-100.00,ESE,107,5.0,11.0,46,0.00,,,0.00,meteohub,2013-02-20 06:26:00,
2013-02-20 00:29:00,50.2,30.2,-100.00,ESE,110,6.0,11.0,46,0.00,,,0.00,meteohub,2013-02-20 06:29:00,
2013-02-20 00:30:00,50.2,30.2,-100.00,ESE,113,6.0,11.0,46,0.00,,,0.00,meteohub,2013-02-20 06:30:00,
2013-02-20 00:31:00,50.2,30.2,-100.00,ESE,113,5.0,12.0,46,0.00,,,0.00,meteohub,2013-02-20 06:31:00,
2013-02-20 00:34:00,50.2,30.2,-100.00,ESE,117,6.0,12.0,46,0.00,,,0.00,meteohub,2013-02-20 06:34:00,
2013-02-20 00:35:00,50.2,30.2,-100.00,ESE,115,5.0,12.0,46,0.00,,,0.00,meteohub,2013-02-20 06:35:00,
2013-02-20 00:36:00,50.2,30.2,-100.00,ESE,115,6.0,12.0,46,0.00,,,0.00,meteohub,2013-02-20 06:36:00,
2013-02-20 00:40:00,50.2,30.2,-100.00,ESE,113,6.0,12.0,46,0.00,,,0.00,meteohub,2013-02-20 06:40:00,
2013-02-20 00:41:00,50.2,30.2,-100.00,ESE,108,5.0,10.0,46,0.00,,,0.00,meteohub,2013-02-20 06:41:00,
2013-02-20 00:45:00,50.2,30.2,-100.00,ESE,109,3.0,10.0,46,0.00,,,0.00,meteohub,2013-02-20 06:45:00,
2013-02-20 00:46:00,50.2,30.2,-100.00,ESE,110,3.0,10.0,46,0.00,,,0.00,meteohub,2013-02-20 06:46:00,
2013-02-20 00:50:00,49.8,30.9,-100.00,ESE,114,4.0,10.0,48,0.00,,,0.00,meteohub,2013-02-20 06:50:00,
2013-02-20 00:51:00,49.8,30.9,-100.00,ESE,114,4.0,10.0,48,0.00,,,0.00,meteohub,2013-02-20 06:51:00,
2013-02-20 00:52:00,49.8,30.9,-100.00,ESE,114,5.0,10.0,48,0.00,,,0.00,meteohub,2013-02-20 06:52:00,
2013-02-20 00:56:00,49.8,31.5,-100.00,ESE,116,3.0,10.0,49,0.00,,,0.00,meteohub,2013-02-20 06:56:00,
2013-02-20 00:57:00,49.8,31.5,-100.00,ESE,116,5.0,10.0,49,0.00,,,0.00,meteohub,2013-02-20 06:57:00,
2013-02-20 01:01:00,49.6,31.3,-100.00,ESE,115,5.0,10.0,49,0.00,,,0.00,meteohub,2013-02-20 07:01:00,
2013-02-20 01:02:00,49.6,31.3,-100.00,ESE,117,7.0,10.0,49,0.00,,,0.00,meteohub,2013-02-20 07:02:00,
2013-02-20 01:06:00,49.6,31.3,-100.00,ESE,114,5.0,10.0,49,0.00,,,0.00,meteohub,2013-02-20 07:06:00,
2013-02-20 01:07:00,49.6,30.7,-100.00,ESE,111,7.0,10.0,48,0.00,,,0.00,meteohub,2013-02-20 07:07:00,
2013-02-20 01:08:00,49.6,30.7,-100.00,ESE,110,5.0,10.0,48,0.00,,,0.00,meteohub,2013-02-20 07:08:00,
2013-02-20 01:11:00,49.6,30.7,-100.00,ESE,107,5.0,9.0,48,0.00,,,0.00,meteohub,2013-02-20 07:11:00,
2013-02-20 01:12:00,49.6,30.7,-100.00,ESE,106,8.0,9.0,48,0.00,,,0.00,meteohub,2013-02-20 07:12:00,
2013-02-20 01:14:00,49.8,30.4,-100.00,ESE,105,5.0,9.0,47,0.00,,,0.00,meteohub,2013-02-20 07:14:00,
2013-02-20 01:16:00,49.8,30.4,-100.00,ESE,105,7.0,11.0,47,0.00,,,0.00,meteohub,2013-02-20 07:16:00,
2013-02-20 01:17:00,49.8,30.4,-100.00,ESE,106,9.0,11.0,47,0.00,,,0.00,meteohub,2013-02-20 07:17:00,
2013-02-20 01:19:00,49.8,30.4,-100.00,ESE,104,7.0,11.0,47,0.00,,,0.00,meteohub,2013-02-20 07:19:00,
2013-02-20 01:21:00,49.8,30.4,-100.00,ESE,103,4.0,11.0,47,0.00,,,0.00,meteohub,2013-02-20 07:21:00,
2013-02-20 01:22:00,49.8,30.4,-100.00,ESE,104,6.0,11.0,47,0.00,,,0.00,meteohub,2013-02-20 07:22:00,
2013-02-20 01:24:00,49.8,30.4,-100.00,ESE,109,5.0,11.0,47,0.00,,,0.00,meteohub,2013-02-20 07:24:00,
2013-02-20 01:26:00,49.8,30.9,-100.00,ESE,108,5.0,10.0,48,0.00,,,0.00,meteohub,2013-02-20 07:26:00,
2013-02-20 01:27:00,49.8,30.9,-100.00,ESE,109,6.0,10.0,48,0.00,,,0.00,meteohub,2013-02-20 07:27:00,
2013-02-20 01:29:00,49.8,31.5,-100.00,ESE,109,6.0,10.0,49,0.00,,,0.00,meteohub,2013-02-20 07:29:00,
2013-02-20 01:32:00,49.8,30.9,-100.00,ESE,114,7.0,10.0,48,0.00,,,0.00,meteohub,2013-02-20 07:32:00,
2013-02-20 01:33:00,49.8,31.5,-100.00,ESE,114,6.0,10.0,49,0.00,,,0.00,meteohub,2013-02-20 07:33:00,
2013-02-20 01:34:00,49.8,30.9,-100.00,ESE,113,5.0,10.0,48,0.00,,,0.00,meteohub,2013-02-20 07:34:00,
2013-02-20 01:37:00,49.6,31.3,-100.00,ESE,113,4.0,11.0,49,0.00,,,0.00,meteohub,2013-02-20 07:37:00,
2013-02-20 01:38:00,49.6,31.3,-100.00,ESE,113,4.0,11.0,49,0.00,,,0.00,meteohub,2013-02-20 07:38:00,
2013-02-20 01:39:00,49.5,31.1,-100.00,ESE,113,6.0,11.0,49,0.00,,,0.00,meteohub,2013-02-20 07:39:00,
2013-02-20 01:42:00,49.5,31.6,-100.00,ESE,113,4.0,11.0,50,0.00,,,0.00,meteohub,2013-02-20 07:42:00,
2013-02-20 01:43:00,49.5,31.6,-100.00,ESE,113,4.0,11.0,50,0.00,,,0.00,meteohub,2013-02-20 07:43:00,
2013-02-20 01:44:00,49.5,31.6,-100.00,ESE,109,5.0,11.0,50,0.00,,,0.00,meteohub,2013-02-20 07:44:00,
2013-02-20 01:47:00,49.5,31.1,-100.00,ESE,107,6.0,11.0,49,0.00,,,0.00,meteohub,2013-02-20 07:47:00,
2013-02-20 01:48:00,49.5,31.1,-100.00,ESE,107,4.0,11.0,49,0.00,,,0.00,meteohub,2013-02-20 07:48:00,
2013-02-20 01:49:00,49.5,31.6,-100.00,ESE,107,6.0,11.0,50,0.00,,,0.00,meteohub,2013-02-20 07:49:00,
2013-02-20 01:50:00,49.5,31.6,-100.00,ESE,106,5.0,11.0,50,0.00,,,0.00,meteohub,2013-02-20 07:50:00,
2013-02-20 01:52:00,49.5,31.1,-100.00,ESE,105,3.0,9.0,49,0.00,,,0.00,meteohub,2013-02-20 07:52:00,
2013-02-20 01:53:00,49.5,31.6,-100.00,ESE,103,5.0,9.0,50,0.00,,,0.00,meteohub,2013-02-20 07:53:00,
2013-02-20 01:54:00,49.5,31.6,-100.00,ESE,103,4.0,9.0,50,0.00,,,0.00,meteohub,2013-02-20 07:54:00,
2013-02-20 01:55:00,49.5,32.0,-100.00,ESE,103,4.0,8.0,51,0.00,,,0.00,meteohub,2013-02-20 07:55:00,
2013-02-20 01:58:00,49.3,32.4,-100.00,ESE,102,4.0,8.0,52,0.00,,,0.00,meteohub,2013-02-20 07:58:00,
2013-02-20 01:59:00,49.3,32.4,-100.00,ESE,102,4.0,8.0,52,0.00,,,0.00,meteohub,2013-02-20 07:59:00,
2013-02-20 02:00:00,49.1,32.2,-100.00,East,101,5.0,7.0,52,0.00,,,0.00,meteohub,2013-02-20 08:00:00,
2013-02-20 02:05:00,48.9,34.0,-100.00,East,100,3.0,7.0,56,0.00,,,0.00,meteohub,2013-02-20 08:05:00,
2013-02-20 02:06:00,48.7,32.9,-100.00,East,101,4.0,7.0,54,0.00,,,0.00,meteohub,2013-02-20 08:06:00,
2013-02-20 02:10:00,48.6,33.1,-100.00,East,101,3.0,7.0,55,0.00,,,0.00,meteohub,2013-02-20 08:10:00,
2013-02-20 02:11:00,48.6,33.1,-100.00,East,101,5.0,7.0,55,0.00,,,0.00,meteohub,2013-02-20 08:11:00,
2013-02-20 02:15:00,48.6,33.1,-100.00,East,101,6.0,7.0,55,0.00,,,0.00,meteohub,2013-02-20 08:15:00,
2013-02-20 02:16:00,48.6,32.2,-100.00,East,101,5.0,7.0,53,0.00,,,0.00,meteohub,2013-02-20 08:16:00,
2013-02-20 02:20:00,48.6,32.7,-100.00,ESE,102,5.0,7.0,54,0.00,,,0.00,meteohub,2013-02-20 08:20:00,
2013-02-20 02:21:00,48.6,32.7,-100.00,ESE,102,5.0,7.0,54,0.00,,,0.00,meteohub,2013-02-20 08:21:00,
2013-02-20 02:23:00,48.6,32.7,-100.00,East,100,5.0,7.0,54,0.00,,,0.00,meteohub,2013-02-20 08:23:00,
2013-02-20 02:25:00,48.7,32.4,-100.00,East,94,6.0,10.0,53,0.00,,,0.00,meteohub,2013-02-20 08:25:00,
2013-02-20 02:26:00,48.7,32.4,-100.00,East,94,6.0,10.0,53,0.00,,,0.00,meteohub,2013-02-20 08:26:00,
2013-02-20 02:27:00,48.7,32.4,-100.00,East,94,4.0,10.0,53,0.00,,,0.00,meteohub,2013-02-20 08:27:00,
2013-02-20 02:28:00,48.7,32.4,-100.00,East,94,5.0,10.0,53,0.00,,,0.00,meteohub,2013-02-20 08:28:00,
2013-02-20 02:30:00,48.7,32.4,-100.00,East,95,6.0,10.0,53,0.00,,,0.00,meteohub,2013-02-20 08:30:00,
2013-02-20 02:31:00,48.9,32.5,-100.00,East,95,5.0,10.0,53,0.00,,,0.00,meteohub,2013-02-20 08:31:00,
2013-02-20 02:32:00,48.9,32.5,-100.00,East,94,6.0,10.0,53,0.00,,,0.00,meteohub,2013-02-20 08:32:00,
2013-02-20 02:33:00,48.9,32.5,-100.00,East,94,3.0,10.0,53,0.00,,,0.00,meteohub,2013-02-20 08:33:00,
2013-02-20 02:36:00,48.9,32.5,-100.00,East,97,6.0,10.0,53,0.00,,,0.00,meteohub,2013-02-20 08:36:00,
2013-02-20 02:37:00,48.9,32.5,-100.00,East,96,7.0,10.0,53,0.00,,,0.00,meteohub,2013-02-20 08:37:00,
2013-02-20 02:38:00,48.9,32.5,-100.00,East,95,4.0,10.0,53,0.00,,,0.00,meteohub,2013-02-20 08:38:00,
2013-02-20 02:42:00,48.9,33.1,-100.00,East,101,10.0,10.0,54,0.00,,,0.00,meteohub,2013-02-20 08:42:00,
2013-02-20 02:43:00,48.9,33.1,-100.00,East,98,9.0,9.0,54,0.00,,,0.00,meteohub,2013-02-20 08:43:00,
2013-02-20 02:47:00,48.9,32.5,-100.00,East,98,8.0,11.0,53,0.00,,,0.00,meteohub,2013-02-20 08:47:00,
2013-02-20 02:48:00,48.9,33.1,-100.00,East,96,7.0,11.0,54,0.00,,,0.00,meteohub,2013-02-20 08:48:00,
2013-02-20 02:52:00,48.7,33.8,-100.00,East,83,6.0,13.0,56,0.00,,,0.00,meteohub,2013-02-20 08:52:00,
2013-02-20 02:53:00,48.6,33.6,-100.00,East,86,12.0,13.0,56,0.00,,,0.00,meteohub,2013-02-20 08:53:00,
2013-02-20 02:54:00,48.6,34.0,-100.00,East,84,7.0,13.0,57,0.00,,,0.00,meteohub,2013-02-20 08:54:00,
2013-02-20 02:57:00,48.2,34.5,-100.00,East,82,10.0,15.0,59,0.00,,,0.00,meteohub,2013-02-20 08:57:00,
2013-02-20 02:58:00,48.2,34.9,-100.00,East,80,10.0,15.0,60,0.00,,,0.00,meteohub,2013-02-20 08:58:00,
2013-02-20 02:59:00,48.0,34.9,-100.00,ENE,77,10.0,15.0,60,0.00,,,0.00,meteohub,2013-02-20 08:59:00,
2013-02-20 03:02:00,47.7,34.9,-100.00,ENE,71,9.0,15.0,61,0.00,,,0.00,meteohub,2013-02-20 09:02:00,
2013-02-20 03:03:00,47.7,34.9,-100.00,ENE,71,8.0,15.0,61,0.00,,,0.00,meteohub,2013-02-20 09:03:00,
2013-02-20 03:04:00,47.7,34.9,-100.00,ENE,65,6.0,15.0,61,0.00,,,0.00,meteohub,2013-02-20 09:04:00,
2013-02-20 03:08:00,47.5,35.1,-100.00,ENE,69,10.0,15.0,62,0.01,,,0.01,meteohub,2013-02-20 09:08:00,
2013-02-20 03:09:00,47.3,34.9,-100.00,ENE,69,10.0,15.0,62,0.01,,,0.01,meteohub,2013-02-20 09:09:00,
2013-02-20 03:13:00,47.3,34.9,-100.00,ENE,64,9.0,14.0,62,0.01,,,0.01,meteohub,2013-02-20 09:13:00,
2013-02-20 03:15:00,47.3,34.9,-100.00,ENE,69,6.0,14.0,62,0.01,,,0.01,meteohub,2013-02-20 09:15:00,
2013-02-20 03:18:00,47.1,34.7,-100.00,ENE,72,7.0,14.0,62,0.01,,,0.01,meteohub,2013-02-20 09:18:00,
2013-02-20 03:21:00,47.1,34.7,-100.00,ENE,73,7.0,14.0,62,0.01,,,0.01,meteohub,2013-02-20 09:21:00,
2013-02-20 03:23:00,47.1,35.2,-100.00,East,79,9.0,14.0,63,0.01,,,0.01,meteohub,2013-02-20 09:23:00,
2013-02-20 03:24:00,47.1,35.2,-100.00,East,80,5.0,14.0,63,0.01,,,0.01,meteohub,2013-02-20 09:24:00,
2013-02-20 03:27:00,47.3,34.9,-100.00,East,92,5.0,14.0,62,0.01,,,0.01,meteohub,2013-02-20 09:27:00,
2013-02-20 03:29:00,47.3,34.9,-100.00,ESE,107,6.0,14.0,62,0.01,,,0.01,meteohub,2013-02-20 09:29:00,
2013-02-20 03:32:00,47.3,34.9,-100.00,East,97,5.0,11.0,62,0.01,,,0.01,meteohub,2013-02-20 09:32:00,
2013-02-20 03:34:00,47.3,34.9,-100.00,East,96,4.0,11.0,62,0.01,,,0.01,meteohub,2013-02-20 09:34:00,
2013-02-20 03:35:00,47.3,34.9,-100.00,East,96,4.0,11.0,62,0.01,,,0.01,meteohub,2013-02-20 09:35:00,
2013-02-20 03:37:00,47.3,34.5,-100.00,East,90,4.0,10.0,61,0.01,,,0.01,meteohub,2013-02-20 09:37:00,
2013-02-20 03:39:00,47.3,34.9,-100.00,East,88,6.0,10.0,62,0.01,,,0.01,meteohub,2013-02-20 09:39:00,
2013-02-20 03:40:00,47.3,34.9,-100.00,East,88,7.0,10.0,62,0.01,,,0.01,meteohub,2013-02-20 09:40:00,
2013-02-20 03:43:00,47.3,35.4,-100.00,ENE,74,7.0,10.0,63,0.01,,,0.01,meteohub,2013-02-20 09:43:00,
2013-02-20 03:45:00,47.3,34.9,-100.00,ENE,71,6.0,10.0,62,0.01,,,0.01,meteohub,2013-02-20 09:45:00,
2013-02-20 03:48:00,47.1,35.2,-100.00,ENE,63,2.0,11.0,63,0.01,,,0.01,meteohub,2013-02-20 09:48:00,
2013-02-20 03:50:00,47.1,35.2,-100.00,ENE,63,3.0,11.0,63,0.01,,,0.01,meteohub,2013-02-20 09:50:00,
2013-02-20 03:54:00,47.1,35.6,-100.00,ENE,60,0.0,11.0,64,0.01,,,0.01,meteohub,2013-02-20 09:54:00,
2013-02-20 03:55:00,47.1,35.6,-100.00,ENE,60,0.0,11.0,64,0.01,,,0.01,meteohub,2013-02-20 09:55:00,
2013-02-20 03:59:00,46.9,35.1,-100.00,ENE,60,3.0,11.0,63,0.01,,,0.01,meteohub,2013-02-20 09:59:00,
2013-02-20 04:00:00,46.9,35.4,-100.00,ENE,60,3.0,11.0,64,0.01,,,0.01,meteohub,2013-02-20 10:00:00,
2013-02-20 04:04:00,46.8,35.2,-100.00,ENE,59,5.0,10.0,64,0.00,,,0.01,meteohub,2013-02-20 10:04:00,
2013-02-20 04:05:00,46.8,35.2,-100.00,ENE,58,3.0,10.0,64,0.00,,,0.01,meteohub,2013-02-20 10:05:00,
2013-02-20 04:06:00,46.8,35.2,-100.00,ENE,58,4.0,7.0,64,0.00,,,0.01,meteohub,2013-02-20 10:06:00,
2013-02-20 04:09:00,46.8,34.9,-100.00,ENE,58,1.0,7.0,63,0.00,,,0.01,meteohub,2013-02-20 10:09:00,
2013-02-20 04:10:00,46.8,34.9,-100.00,ENE,58,2.0,7.0,63,0.00,,,0.01,meteohub,2013-02-20 10:10:00,
2013-02-20 04:11:00,46.8,35.2,-100.00,ENE,58,3.0,6.0,64,0.00,,,0.01,meteohub,2013-02-20 10:11:00,
2013-02-20 04:15:00,46.8,35.2,-100.00,ENE,58,4.0,6.0,64,0.00,,,0.01,meteohub,2013-02-20 10:15:00,
2013-02-20 04:16:00,46.8,35.6,-100.00,ENE,58,5.0,6.0,65,0.00,,,0.01,meteohub,2013-02-20 10:16:00,
2013-02-20 04:20:00,46.6,35.8,-100.00,ENE,57,4.0,6.0,66,0.00,,,0.01,meteohub,2013-02-20 10:20:00,
2013-02-20 04:22:00,46.6,35.8,-100.00,ENE,57,2.0,6.0,66,0.00,,,0.01,meteohub,2013-02-20 10:22:00,
2013-02-20 04:25:00,46.4,35.2,-100.00,NE,52,4.0,6.0,65,0.00,,,0.01,meteohub,2013-02-20 10:25:00,
2013-02-20 04:28:00,46.4,35.6,-100.00,NE,52,4.0,6.0,66,0.00,,,0.01,meteohub,2013-02-20 10:28:00,
2013-02-20 04:30:00,46.2,36.0,-100.00,NE,50,5.0,6.0,67,0.00,,,0.01,meteohub,2013-02-20 10:30:00,
2013-02-20 04:31:00,46.2,36.0,-100.00,NE,50,4.0,7.0,67,0.00,,,0.01,meteohub,2013-02-20 10:31:00,
2013-02-20 04:33:00,46.2,36.0,-100.00,NE,50,4.0,7.0,67,0.00,,,0.01,meteohub,2013-02-20 10:33:00,
2013-02-20 04:35:00,46.0,36.1,-100.00,NE,53,9.0,9.0,68,0.00,,,0.01,meteohub,2013-02-20 10:35:00,
2013-02-20 04:36:00,46.0,36.1,-100.00,NE,52,5.0,10.0,68,0.00,,,0.01,meteohub,2013-02-20 10:36:00,
2013-02-20 04:38:00,46.0,36.1,-100.00,NE,51,6.0,10.0,68,0.00,,,0.01,meteohub,2013-02-20 10:38:00,
2013-02-20 04:41:00,45.9,36.0,-100.00,ENE,58,8.0,10.0,68,0.00,,,0.01,meteohub,2013-02-20 10:41:00,
2013-02-20 04:43:00,45.7,36.1,-100.00,ENE,59,6.0,10.0,69,0.00,,,0.01,meteohub,2013-02-20 10:43:00,
2013-02-20 04:46:00,45.5,36.0,-100.00,ENE,65,11.0,11.0,69,0.00,,,0.01,meteohub,2013-02-20 10:46:00,
2013-02-20 04:48:00,45.3,36.1,-100.00,ENE,63,10.0,11.0,70,0.00,,,0.01,meteohub,2013-02-20 10:48:00,
2013-02-20 04:51:00,45.1,36.0,-100.00,NE,52,9.0,11.0,70,0.00,,,0.01,meteohub,2013-02-20 10:51:00,
2013-02-20 04:53:00,45.1,36.0,-100.00,ENE,69,6.0,14.0,70,0.00,,,0.01,meteohub,2013-02-20 10:53:00,
2013-02-20 04:56:00,45.1,36.0,-100.00,NE,53,11.0,14.0,70,0.00,,,0.01,meteohub,2013-02-20 10:56:00,
2013-02-20 04:57:00,45.1,36.0,-100.00,NE,56,7.0,15.0,70,0.00,,,0.01,meteohub,2013-02-20 10:57:00,
2013-02-20 04:58:00,45.1,36.3,-100.00,ENE,78,10.0,15.0,71,0.00,,,0.01,meteohub,2013-02-20 10:58:00,
2013-02-20 05:02:00,44.8,36.0,-100.00,ENE,72,12.0,15.0,71,0.00,,,0.01,meteohub,2013-02-20 11:02:00,
2013-02-20 05:03:00,44.6,36.1,-100.00,East,80,12.0,15.0,72,0.00,,,0.01,meteohub,2013-02-20 11:03:00,
2013-02-20 05:07:00,44.4,36.3,-100.00,ENE,62,10.0,16.0,73,0.00,,,0.01,meteohub,2013-02-20 11:07:00,
2013-02-20 05:08:00,44.4,36.3,-100.00,ENE,66,9.0,16.0,73,0.00,,,0.01,meteohub,2013-02-20 11:08:00,
2013-02-20 05:12:00,44.2,36.1,-100.00,ENE,69,8.0,16.0,73,0.00,,,0.01,meteohub,2013-02-20 11:12:00,
2013-02-20 05:13:00,44.2,36.5,-100.00,ENE,67,9.0,16.0,74,0.00,,,0.01,meteohub,2013-02-20 11:13:00,
2013-02-20 05:14:00,44.2,36.5,-100.00,ENE,68,10.0,16.0,74,0.00,,,0.01,meteohub,2013-02-20 11:14:00,
2013-02-20 05:17:00,44.2,36.5,-100.00,ENE,69,10.0,15.0,74,0.00,,,0.01,meteohub,2013-02-20 11:17:00,
2013-02-20 05:18:00,44.2,36.5,-100.00,ENE,65,8.0,15.0,74,0.00,,,0.01,meteohub,2013-02-20 11:18:00,
2013-02-20 05:19:00,44.2,36.5,-100.00,ENE,74,14.0,15.0,74,0.00,,,0.01,meteohub,2013-02-20 11:19:00,
2013-02-20 05:22:00,44.2,36.1,-100.00,ENE,67,8.0,14.0,73,0.00,,,0.01,meteohub,2013-02-20 11:22:00,
2013-02-20 05:23:00,44.2,36.1,-100.00,ENE,69,10.0,14.0,73,0.00,,,0.01,meteohub,2013-02-20 11:23:00,
2013-02-20 05:24:00,44.2,35.8,-100.00,ENE,65,12.0,14.0,72,0.00,,,0.01,meteohub,2013-02-20 11:24:00,
2013-02-20 05:25:00,44.2,35.8,-100.00,ENE,63,11.0,14.0,72,0.00,,,0.01,meteohub,2013-02-20 11:25:00,
2013-02-20 05:28:00,44.2,35.8,-100.00,East,85,12.0,17.0,72,0.00,,,0.01,meteohub,2013-02-20 11:28:00,
2013-02-20 05:29:00,44.2,35.8,-100.00,ENE,76,14.0,17.0,72,0.00,,,0.01,meteohub,2013-02-20 11:29:00,
2013-02-20 05:30:00,44.2,35.8,-100.00,ENE,77,7.0,17.0,72,0.00,,,0.01,meteohub,2013-02-20 11:30:00,
2013-02-20 05:33:00,44.2,35.8,-100.00,ENE,76,12.0,17.0,72,0.00,,,0.01,meteohub,2013-02-20 11:33:00,
2013-02-20 05:34:00,44.2,35.8,-100.00,ENE,66,16.0,17.0,72,0.00,,,0.01,meteohub,2013-02-20 11:34:00,
2013-02-20 05:35:00,44.2,35.8,-100.00,ENE,69,11.0,17.0,72,0.00,,,0.01,meteohub,2013-02-20 11:35:00,
2013-02-20 05:38:00,44.2,35.4,-100.00,ENE,62,11.0,18.0,71,0.00,,,0.01,meteohub,2013-02-20 11:38:00,
2013-02-20 05:39:00,44.2,35.8,-100.00,East,82,11.0,18.0,72,0.00,,,0.01,meteohub,2013-02-20 11:39:00,
2013-02-20 05:40:00,44.2,35.8,-100.00,ENE,65,15.0,18.0,72,0.00,,,0.01,meteohub,2013-02-20 11:40:00,
2013-02-20 05:43:00,44.2,35.4,-100.00,ENE,71,12.0,18.0,71,0.00,,,0.01,meteohub,2013-02-20 11:43:00,
2013-02-20 05:44:00,44.2,35.4,-100.00,East,82,11.0,18.0,71,0.00,,,0.01,meteohub,2013-02-20 11:44:00,
2013-02-20 05:45:00,44.2,35.4,-100.00,ENE,76,11.0,18.0,71,0.00,,,0.01,meteohub,2013-02-20 11:45:00,
2013-02-20 05:48:00,44.2,35.1,-100.00,ENE,75,12.0,18.0,70,0.00,,,0.01,meteohub,2013-02-20 11:48:00,
2013-02-20 05:49:00,44.4,35.2,-100.00,East,82,13.0,18.0,70,0.00,,,0.01,meteohub,2013-02-20 11:49:00,
2013-02-20 05:50:00,44.4,35.2,-100.00,East,94,14.0,18.0,70,0.00,,,0.01,meteohub,2013-02-20 11:50:00,
2013-02-20 05:53:00,44.2,34.7,-100.00,ESE,103,13.0,20.0,69,0.00,,,0.01,meteohub,2013-02-20 11:53:00,
2013-02-20 05:54:00,44.2,34.7,-100.00,East,97,16.0,20.0,69,0.00,,,0.01,meteohub,2013-02-20 11:54:00,
2013-02-20 05:55:00,44.4,34.9,-100.00,East,92,9.0,20.0,69,0.00,,,0.01,meteohub,2013-02-20 11:55:00,
2013-02-20 05:58:00,44.4,34.9,-100.00,East,92,10.0,20.0,69,0.00,,,0.01,meteohub,2013-02-20 11:58:00,
2013-02-20 05:59:00,44.4,34.9,-100.00,East,94,15.0,20.0,69,0.00,,,0.01,meteohub,2013-02-20 11:59:00,
2013-02-20 06:00:00,44.4,34.5,-100.00,East,86,10.0,20.0,68,0.00,,,0.01,meteohub,2013-02-20 12:00:00,
2013-02-20 06:01:00,44.4,34.5,-100.00,East,98,16.0,20.0,68,0.00,,,0.01,meteohub,2013-02-20 12:01:00,
2013-02-20 06:04:00,44.4,34.2,-100.00,East,92,7.0,20.0,67,0.00,,,0.01,meteohub,2013-02-20 12:04:00,
2013-02-20 06:05:00,44.6,34.0,-100.00,East,94,11.0,20.0,66,0.00,,,0.01,meteohub,2013-02-20 12:05:00,
2013-02-20 06:06:00,44.6,34.0,-100.00,ESE,104,16.0,20.0,66,0.00,,,0.01,meteohub,2013-02-20 12:06:00,
2013-02-20 06:09:00,44.6,34.0,-100.00,ESE,104,8.0,21.0,66,0.00,,,0.01,meteohub,2013-02-20 12:09:00,
2013-02-20 06:10:00,44.6,34.0,-100.00,East,84,11.0,21.0,66,0.00,,,0.01,meteohub,2013-02-20 12:10:00,
2013-02-20 06:11:00,44.6,34.0,-100.00,East,88,9.0,21.0,66,0.00,,,0.01,meteohub,2013-02-20 12:11:00,
2013-02-20 06:14:00,44.6,34.0,-100.00,East,80,11.0,21.0,66,0.00,,,0.01,meteohub,2013-02-20 12:14:00,
2013-02-20 06:15:00,44.6,33.6,-100.00,ENE,78,11.0,21.0,65,0.00,,,0.01,meteohub,2013-02-20 12:15:00,
2013-02-20 06:17:00,44.6,33.6,-100.00,ENE,73,7.0,21.0,65,0.00,,,0.01,meteohub,2013-02-20 12:17:00,
2013-02-20 06:20:00,44.8,33.8,-100.00,NE,56,2.0,21.0,65,0.00,,,0.01,meteohub,2013-02-20 12:20:00,
2013-02-20 06:23:00,44.8,33.3,-100.00,East,79,7.0,18.0,64,0.00,,,0.01,meteohub,2013-02-20 12:23:00,
2013-02-20 06:25:00,44.8,33.8,-100.00,ENE,69,9.0,18.0,65,0.00,,,0.01,meteohub,2013-02-20 12:25:00,
2013-02-20 06:28:00,44.6,33.6,-100.00,ENE,70,9.0,15.0,65,0.00,,,0.01,meteohub,2013-02-20 12:28:00,
2013-02-20 06:30:00,44.6,33.6,-100.00,East,95,14.0,15.0,65,0.00,,,0.01,meteohub,2013-02-20 12:30:00,
2013-02-20 06:32:00,44.6,33.3,-100.00,ENE,73,9.0,11.0,64,0.00,,,0.01,meteohub,2013-02-20 12:32:00,
2013-02-20 06:34:00,44.6,33.6,-100.00,ENE,65,9.0,11.0,65,0.00,,,0.01,meteohub,2013-02-20 12:34:00,
2013-02-20 06:36:00,44.6,33.6,-100.00,ENE,76,11.0,14.0,65,0.00,,,0.01,meteohub,2013-02-20 12:36:00,
2013-02-20 06:37:00,44.6,34.0,-100.00,East,90,11.0,14.0,66,0.00,,,0.01,meteohub,2013-02-20 12:37:00,
2013-02-20 06:39:00,44.4,34.2,-100.00,East,92,13.0,14.0,67,0.00,,,0.01,meteohub,2013-02-20 12:39:00,
2013-02-20 06:41:00,44.2,34.0,-100.00,East,79,14.0,16.0,67,0.00,,,0.01,meteohub,2013-02-20 12:41:00,
2013-02-20 06:42:00,44.2,34.0,-100.00,East,90,12.0,16.0,67,0.00,,,0.01,meteohub,2013-02-20 12:42:00,
2013-02-20 06:45:00,44.1,34.2,-100.00,East,88,12.0,17.0,68,0.00,,,0.01,meteohub,2013-02-20 12:45:00,
2013-02-20 06:46:00,44.1,34.2,-100.00,East,90,13.0,17.0,68,0.00,,,0.01,meteohub,2013-02-20 12:46:00,
2013-02-20 06:48:00,43.9,34.3,-100.00,East,96,14.0,17.0,69,0.00,,,0.01,meteohub,2013-02-20 12:48:00,
2013-02-20 06:51:00,43.9,34.7,-100.00,East,96,10.0,18.0,70,0.00,,,0.01,meteohub,2013-02-20 12:51:00,
2013-02-20 06:52:00,43.9,34.7,-100.00,East,92,7.0,18.0,70,0.00,,,0.01,meteohub,2013-02-20 12:52:00,
2013-02-20 06:53:00,43.5,34.3,-100.00,ESE,105,10.0,18.0,70,0.00,,,0.01,meteohub,2013-02-20 12:53:00,
2013-02-20 06:56:00,43.5,34.3,-100.00,ESE,105,8.0,18.0,70,0.00,,,0.01,meteohub,2013-02-20 12:56:00,
2013-02-20 06:57:00,43.9,34.7,-100.00,ESE,103,6.0,18.0,70,0.00,,,0.01,meteohub,2013-02-20 12:57:00,
2013-02-20 06:58:00,43.5,34.7,-100.00,East,97,7.0,18.0,71,0.00,,,0.01,meteohub,2013-02-20 12:58:00,
2013-02-20 07:01:00,43.5,34.7,-100.00,East,101,13.0,18.0,71,0.00,,,0.01,meteohub,2013-02-20 13:01:00,
2013-02-20 07:02:00,43.5,34.7,-100.00,ESE,104,10.0,18.0,71,0.00,,,0.01,meteohub,2013-02-20 13:02:00,
2013-02-20 07:03:00,43.5,34.7,-100.00,ESE,107,15.0,18.0,71,0.00,,,0.01,meteohub,2013-02-20 13:03:00,
2013-02-20 07:06:00,43.5,34.7,-100.00,East,98,7.0,17.0,71,0.00,,,0.01,meteohub,2013-02-20 13:06:00,
2013-02-20 07:07:00,43.5,34.7,-100.00,East,98,6.0,17.0,71,0.00,,,0.01,meteohub,2013-02-20 13:07:00,
2013-02-20 07:08:00,43.5,34.7,-100.00,East,94,8.0,17.0,71,0.00,,,0.01,meteohub,2013-02-20 13:08:00,
2013-02-20 07:09:00,43.5,34.7,-100.00,ESE,102,11.0,17.0,71,0.00,,,0.01,meteohub,2013-02-20 13:09:00,
2013-02-20 07:11:00,43.5,35.1,-100.00,East,94,6.0,17.0,72,0.00,,,0.01,meteohub,2013-02-20 13:11:00,
2013-02-20 07:12:00,43.5,35.1,-100.00,East,88,8.0,17.0,72,0.00,,,0.01,meteohub,2013-02-20 13:12:00,
2013-02-20 07:13:00,43.5,34.7,-100.00,East,89,10.0,17.0,71,0.00,,,0.01,meteohub,2013-02-20 13:13:00,
2013-02-20 07:14:00,43.5,34.7,-100.00,East,86,11.0,17.0,71,0.00,,,0.01,meteohub,2013-02-20 13:14:00,
2013-02-20 07:17:00,43.5,34.7,-100.00,East,88,7.0,16.0,71,0.00,,,0.01,meteohub,2013-02-20 13:17:00,
2013-02-20 07:18:00,43.5,35.1,-100.00,East,83,6.0,16.0,72,0.00,,,0.01,meteohub,2013-02-20 13:18:00,
2013-02-20 07:19:00,43.5,35.1,-100.00,ENE,77,11.0,16.0,72,0.00,,,0.01,meteohub,2013-02-20 13:19:00,
2013-02-20 07:22:00,43.5,35.1,-100.00,East,79,14.0,15.0,72,0.00,,,0.01,meteohub,2013-02-20 13:22:00,
2013-02-20 07:23:00,43.5,35.1,-100.00,East,88,11.0,15.0,72,0.00,,,0.01,meteohub,2013-02-20 13:23:00,
2013-02-20 07:24:00,43.5,35.1,-100.00,East,96,10.0,15.0,72,0.00,,,0.01,meteohub,2013-02-20 13:24:00,
2013-02-20 07:25:00,43.5,35.1,-100.00,ESE,108,15.0,15.0,72,0.00,,,0.01,meteohub,2013-02-20 13:25:00,
2013-02-20 07:28:00,43.5,35.1,-100.00,ENE,76,12.0,16.0,72,0.00,,,0.01,meteohub,2013-02-20 13:28:00,
2013-02-20 07:29:00,43.5,35.1,-100.00,East,96,11.0,16.0,72,0.00,,,0.01,meteohub,2013-02-20 13:29:00,
2013-02-20 07:30:00,43.5,35.1,-100.00,East,89,8.0,16.0,72,0.00,,,0.01,meteohub,2013-02-20 13:30:00,
2013-02-20 07:33:00,43.5,35.1,-100.00,East,101,10.0,17.0,72,0.00,,,0.01,meteohub,2013-02-20 13:33:00,
2013-02-20 07:34:00,43.5,35.1,-100.00,East,98,8.0,17.0,72,0.00,,,0.01,meteohub,2013-02-20 13:34:00,
2013-02-20 07:36:00,43.5,34.7,-100.00,East,82,13.0,17.0,71,0.00,,,0.01,meteohub,2013-02-20 13:36:00,
2013-02-20 07:39:00,43.5,35.1,-100.00,East,98,13.0,17.0,72,0.00,,,0.01,meteohub,2013-02-20 13:39:00,
2013-02-20 07:41:00,43.5,35.1,-100.00,ESE,107,11.0,19.0,72,0.00,,,0.01,meteohub,2013-02-20 13:41:00,
2013-02-20 07:44:00,43.5,35.1,-100.00,East,97,10.0,19.0,72,0.00,,,0.01,meteohub,2013-02-20 13:44:00,
2013-02-20 07:46:00,43.9,35.1,-100.00,East,96,5.0,19.0,71,0.00,,,0.01,meteohub,2013-02-20 13:46:00,
2013-02-20 07:49:00,43.9,35.1,-100.00,East,101,11.0,19.0,71,0.00,,,0.01,meteohub,2013-02-20 13:49:00,
2013-02-20 07:50:00,43.9,35.1,-100.00,East,97,10.0,19.0,71,0.00,,,0.01,meteohub,2013-02-20 13:50:00,
2013-02-20 07:51:00,43.9,35.1,-100.00,ENE,78,5.0,19.0,71,0.00,,,0.01,meteohub,2013-02-20 13:51:00,
2013-02-20 07:54:00,43.9,35.4,-100.00,East,81,4.0,19.0,72,0.00,,,0.01,meteohub,2013-02-20 13:54:00,
2013-02-20 07:55:00,43.9,35.4,-100.00,East,88,7.0,19.0,72,0.00,,,0.01,meteohub,2013-02-20 13:55:00,
2013-02-20 07:57:00,43.9,35.4,-100.00,East,90,3.0,15.0,72,0.00,,,0.01,meteohub,2013-02-20 13:57:00,
2013-02-20 07:59:00,43.9,35.4,-100.00,East,90,0.0,15.0,72,0.00,,,0.01,meteohub,2013-02-20 13:59:00,
2013-02-20 08:00:00,43.9,35.4,-100.00,East,90,4.0,15.0,72,0.00,,,0.01,meteohub,2013-02-20 14:00:00,
2013-02-20 08:02:00,43.9,35.4,-100.00,East,88,9.0,12.0,72,0.00,,,0.01,meteohub,2013-02-20 14:02:00,
2013-02-20 08:05:00,43.9,35.1,-100.00,East,93,6.0,12.0,71,0.00,,,0.01,meteohub,2013-02-20 14:05:00,
2013-02-20 08:06:00,43.9,35.1,-100.00,East,90,9.0,12.0,71,0.00,,,0.01,meteohub,2013-02-20 14:06:00,
2013-02-20 08:07:00,43.9,35.4,-100.00,East,89,5.0,12.0,72,0.00,,,0.01,meteohub,2013-02-20 14:07:00,
2013-02-20 08:10:00,43.9,35.8,-100.00,East,97,5.0,12.0,73,0.00,,,0.01,meteohub,2013-02-20 14:10:00,
2013-02-20 08:11:00,43.9,35.8,-100.00,East,97,5.0,12.0,73,0.00,,,0.01,meteohub,2013-02-20 14:11:00,
2013-02-20 08:12:00,43.5,35.8,-100.00,East,91,10.0,12.0,74,0.00,,,0.01,meteohub,2013-02-20 14:12:00,
2013-02-20 08:16:00,43.5,36.1,-100.00,East,88,5.0,12.0,75,0.00,,,0.01,meteohub,2013-02-20 14:16:00,
2013-02-20 08:18:00,43.5,36.1,-100.00,ENE,64,5.0,12.0,75,0.00,,,0.01,meteohub,2013-02-20 14:18:00,
2013-02-20 08:21:00,43.5,36.5,-100.00,NE,47,6.0,11.0,76,0.00,,,0.01,meteohub,2013-02-20 14:21:00,
2013-02-20 08:24:00,43.3,36.3,-100.00,NNE,25,5.0,11.0,76,0.00,,,0.01,meteohub,2013-02-20 14:24:00,
2013-02-20 08:26:00,43.3,36.7,-100.00,NNE,19,3.0,11.0,77,0.01,,,0.02,meteohub,2013-02-20 14:26:00,
2013-02-20 08:29:00,43.2,36.5,-100.00,NNE,19,4.0,11.0,77,0.01,,,0.02,meteohub,2013-02-20 14:29:00,
2013-02-20 08:31:00,43.2,36.5,-100.00,NNE,22,3.0,10.0,77,0.01,,,0.02,meteohub,2013-02-20 14:31:00,
2013-02-20 08:32:00,43.2,36.5,-100.00,NNE,24,6.0,10.0,77,0.01,,,0.02,meteohub,2013-02-20 14:32:00,
2013-02-20 08:34:00,43.2,36.5,-100.00,NE,36,6.0,10.0,77,0.01,,,0.02,meteohub,2013-02-20 14:34:00,
2013-02-20 08:36:00,43.2,36.5,-100.00,NE,44,4.0,10.0,77,0.01,,,0.02,meteohub,2013-02-20 14:36:00,
2013-02-20 08:37:00,43.2,36.7,-100.00,NE,54,7.0,10.0,78,0.01,,,0.02,meteohub,2013-02-20 14:37:00,
2013-02-20 08:39:00,43.2,36.7,-100.00,ENE,65,6.0,10.0,78,0.01,,,0.02,meteohub,2013-02-20 14:39:00,
2013-02-20 08:42:00,43.2,36.7,-100.00,ENE,63,6.0,10.0,78,0.01,,,0.02,meteohub,2013-02-20 14:42:00,
2013-02-20 08:44:00,43.2,36.5,-100.00,ENE,69,5.0,10.0,77,0.01,,,0.02,meteohub,2013-02-20 14:44:00,
2013-02-20 08:47:00,43.2,36.7,-100.00,ENE,59,7.0,11.0,78,0.01,,,0.02,meteohub,2013-02-20 14:47:00,
2013-02-20 08:48:00,43.2,36.7,-100.00,ENE,59,6.0,11.0,78,0.01,,,0.02,meteohub,2013-02-20 14:48:00,
2013-02-20 08:49:00,43.2,36.5,-100.00,ENE,72,4.0,11.0,77,0.01,,,0.02,meteohub,2013-02-20 14:49:00,
2013-02-20 08:52:00,43.2,36.7,-100.00,East,80,7.0,11.0,78,0.01,,,0.02,meteohub,2013-02-20 14:52:00,
2013-02-20 08:53:00,43.2,36.7,-100.00,ENE,77,7.0,11.0,78,0.01,,,0.02,meteohub,2013-02-20 14:53:00,
2013-02-20 08:55:00,43.2,36.7,-100.00,East,80,6.0,11.0,78,0.01,,,0.02,meteohub,2013-02-20 14:55:00,
2013-02-20 08:57:00,43.2,36.5,-100.00,East,82,10.0,11.0,77,0.01,,,0.02,meteohub,2013-02-20 14:57:00,
2013-02-20 08:58:00,43.2,36.5,-100.00,ENE,78,10.0,11.0,77,0.01,,,0.02,meteohub,2013-02-20 14:58:00,
2013-02-20 09:00:00,43.3,36.7,-100.00,East,85,7.0,11.0,77,0.01,,,0.02,meteohub,2013-02-20 15:00:00,
2013-02-20 09:02:00,43.3,36.7,-100.00,ENE,77,11.0,14.0,77,0.01,,,0.02,meteohub,2013-02-20 15:02:00,
2013-02-20 09:03:00,43.3,36.7,-100.00,East,82,10.0,14.0,77,0.01,,,0.02,meteohub,2013-02-20 15:03:00,
2013-02-20 09:04:00,43.3,36.7,-100.00,ENE,72,8.0,14.0,77,0.01,,,0.02,meteohub,2013-02-20 15:04:00,
2013-02-20 09:06:00,43.3,36.7,-100.00,ENE,70,5.0,14.0,77,0.01,,,0.02,meteohub,2013-02-20 15:06:00,
2013-02-20 09:07:00,43.3,36.7,-100.00,ENE,71,9.0,14.0,77,0.01,,,0.02,meteohub,2013-02-20 15:07:00,
2013-02-20 09:08:00,43.3,36.7,-100.00,ENE,67,7.0,14.0,77,0.01,,,0.02,meteohub,2013-02-20 15:08:00,
2013-02-20 09:09:00,43.3,36.7,-100.00,ENE,60,11.0,14.0,77,0.01,,,0.02,meteohub,2013-02-20 15:09:00,
2013-02-20 09:11:00,43.3,36.7,-100.00,ENE,61,13.0,14.0,77,0.01,,,0.02,meteohub,2013-02-20 15:11:00,
2013-02-20 09:13:00,43.3,36.7,-100.00,ENE,74,8.0,14.0,77,0.01,,,0.02,meteohub,2013-02-20 15:13:00,
2013-02-20 09:15:00,43.3,36.7,-100.00,ENE,69,5.0,14.0,77,0.01,,,0.02,meteohub,2013-02-20 15:15:00,
2013-02-20 09:16:00,43.3,36.7,-100.00,East,83,10.0,16.0,77,0.01,,,0.02,meteohub,2013-02-20 15:16:00,
2013-02-20 09:19:00,43.3,36.7,-100.00,ENE,69,7.0,16.0,77,0.01,,,0.02,meteohub,2013-02-20 15:19:00,
2013-02-20 09:20:00,43.3,36.7,-100.00,ENE,73,7.0,16.0,77,0.01,,,0.02,meteohub,2013-02-20 15:20:00,
2013-02-20 09:21:00,43.3,36.9,-100.00,ENE,75,11.0,16.0,78,0.00,,,0.02,meteohub,2013-02-20 15:21:00,
2013-02-20 09:24:00,43.3,36.7,-100.00,East,79,13.0,16.0,77,0.00,,,0.02,meteohub,2013-02-20 15:24:00,
2013-02-20 09:25:00,43.3,36.7,-100.00,East,84,10.0,16.0,77,0.00,,,0.02,meteohub,2013-02-20 15:25:00,
2013-02-20 09:26:00,43.3,36.9,-100.00,East,88,8.0,17.0,78,0.00,,,0.02,meteohub,2013-02-20 15:26:00,
2013-02-20 09:29:00,43.3,36.9,-100.00,East,88,11.0,17.0,78,0.00,,,0.02,meteohub,2013-02-20 15:29:00,
2013-02-20 09:30:00,43.3,36.9,-100.00,East,79,7.0,17.0,78,0.00,,,0.02,meteohub,2013-02-20 15:30:00,
2013-02-20 09:32:00,43.3,36.9,-100.00,East,85,11.0,17.0,78,0.00,,,0.02,meteohub,2013-02-20 15:32:00,
2013-02-20 09:35:00,43.3,36.9,-100.00,ENE,75,14.0,17.0,78,0.00,,,0.02,meteohub,2013-02-20 15:35:00,
2013-02-20 09:36:00,43.3,37.6,-100.00,ENE,74,7.0,17.0,80,0.00,,,0.02,meteohub,2013-02-20 15:36:00,
2013-02-20 09:37:00,43.3,36.9,-100.00,ENE,77,3.0,17.0,78,0.00,,,0.02,meteohub,2013-02-20 15:37:00,
2013-02-20 09:40:00,43.3,36.9,-100.00,East,83,5.0,17.0,78,0.00,,,0.02,meteohub,2013-02-20 15:40:00,
2013-02-20 09:41:00,43.3,36.9,-100.00,East,83,2.0,15.0,78,0.00,,,0.02,meteohub,2013-02-20 15:41:00,
2013-02-20 09:43:00,43.3,36.9,-100.00,East,83,3.0,15.0,78,0.00,,,0.02,meteohub,2013-02-20 15:43:00,
2013-02-20 09:45:00,43.3,37.2,-100.00,ENE,77,6.0,15.0,79,0.00,,,0.02,meteohub,2013-02-20 15:45:00,
2013-02-20 09:46:00,43.3,37.2,-100.00,East,79,9.0,15.0,79,0.00,,,0.02,meteohub,2013-02-20 15:46:00,
2013-02-20 09:48:00,43.2,37.0,-100.00,East,80,5.0,15.0,79,0.00,,,0.02,meteohub,2013-02-20 15:48:00,
2013-02-20 09:50:00,43.0,37.2,-100.00,East,95,6.0,13.0,80,0.02,,,0.04,meteohub,2013-02-20 15:50:00,
2013-02-20 09:51:00,43.0,37.2,-100.00,East,86,11.0,13.0,80,0.02,,,0.04,meteohub,2013-02-20 15:51:00,
2013-02-20 09:53:00,42.8,37.4,-100.00,East,86,6.0,13.0,81,0.02,,,0.04,meteohub,2013-02-20 15:53:00,
2013-02-20 09:55:00,42.8,37.8,-100.00,East,80,10.0,13.0,82,0.03,,,0.05,meteohub,2013-02-20 15:55:00,
2013-02-20 09:56:00,42.8,37.8,-100.00,East,82,9.0,13.0,82,0.03,,,0.05,meteohub,2013-02-20 15:56:00,
2013-02-20 09:57:00,42.8,37.8,-100.00,East,80,9.0,13.0,82,0.03,,,0.05,meteohub,2013-02-20 15:57:00,
2013-02-20 09:58:00,42.8,37.9,-100.00,East,79,9.0,13.0,83,0.03,,,0.05,meteohub,2013-02-20 15:58:00,
2013-02-20 10:00:00,43.0,38.1,-100.00,East,94,10.0,14.0,83,0.03,,,0.05,meteohub,2013-02-20 16:00:00,
2013-02-20 10:01:00,43.0,38.1,-100.00,East,85,9.0,14.0,83,0.03,,,0.05,meteohub,2013-02-20 16:01:00,
2013-02-20 10:02:00,43.0,38.1,-100.00,East,80,6.0,14.0,83,0.03,,,0.05,meteohub,2013-02-20 16:02:00,
2013-02-20 10:03:00,42.8,37.9,-100.00,East,89,9.0,14.0,83,0.03,,,0.05,meteohub,2013-02-20 16:03:00,
2013-02-20 10:06:00,42.8,37.9,-100.00,ESE,102,9.0,14.0,83,0.03,,,0.05,meteohub,2013-02-20 16:06:00,
2013-02-20 10:07:00,42.8,37.9,-100.00,East,84,7.0,14.0,83,0.03,,,0.05,meteohub,2013-02-20 16:07:00,
2013-02-20 10:08:00,42.8,37.9,-100.00,East,96,8.0,14.0,83,0.03,,,0.05,meteohub,2013-02-20 16:08:00,
2013-02-20 10:11:00,42.6,38.1,-100.00,East,101,9.0,16.0,84,0.04,,,0.06,meteohub,2013-02-20 16:11:00,
2013-02-20 10:12:00,42.6,38.1,-100.00,East,85,7.0,16.0,84,0.04,,,0.06,meteohub,2013-02-20 16:12:00,
2013-02-20 10:13:00,42.6,38.1,-100.00,East,101,13.0,16.0,84,0.04,,,0.06,meteohub,2013-02-20 16:13:00,
2013-02-20 10:16:00,42.4,37.9,-100.00,East,82,11.0,16.0,84,0.04,,,0.06,meteohub,2013-02-20 16:16:00,
2013-02-20 10:17:00,42.4,38.3,-100.00,East,88,13.0,16.0,85,0.04,,,0.06,meteohub,2013-02-20 16:17:00,
2013-02-20 10:18:00,42.4,38.3,-100.00,East,92,10.0,16.0,85,0.04,,,0.06,meteohub,2013-02-20 16:18:00,
2013-02-20 10:21:00,42.8,38.7,-100.00,East,90,14.0,17.0,85,0.05,,,0.07,meteohub,2013-02-20 16:21:00,
2013-02-20 10:22:00,42.8,38.7,-100.00,East,86,9.0,17.0,85,0.05,,,0.07,meteohub,2013-02-20 16:22:00,
2013-02-20 10:23:00,43.0,38.8,-100.00,East,95,10.0,17.0,85,0.05,,,0.07,meteohub,2013-02-20 16:23:00,
2013-02-20 10:24:00,43.0,38.8,-100.00,East,90,10.0,17.0,85,0.05,,,0.07,meteohub,2013-02-20 16:24:00,
2013-02-20 10:27:00,43.0,38.8,-100.00,ENE,76,14.0,17.0,85,0.05,,,0.07,meteohub,2013-02-20 16:27:00,
2013-02-20 10:29:00,43.5,39.6,-100.00,ENE,74,13.0,17.0,86,0.05,,,0.07,meteohub,2013-02-20 16:29:00,
2013-02-20 10:32:00,43.9,39.9,-100.00,East,86,9.0,17.0,86,0.05,,,0.07,meteohub,2013-02-20 16:32:00,
2013-02-20 10:34:00,43.9,39.7,-100.00,East,83,10.0,17.0,85,0.05,,,0.07,meteohub,2013-02-20 16:34:00,
2013-02-20 10:35:00,43.9,39.7,-100.00,East,87,11.0,17.0,85,0.05,,,0.07,meteohub,2013-02-20 16:35:00,
2013-02-20 10:37:00,43.9,39.7,-100.00,East,80,10.0,17.0,85,0.05,,,0.07,meteohub,2013-02-20 16:37:00,
2013-02-20 10:39:00,43.9,39.7,-100.00,East,90,11.0,17.0,85,0.05,,,0.07,meteohub,2013-02-20 16:39:00,
2013-02-20 10:40:00,43.9,39.7,-100.00,ENE,71,13.0,17.0,85,0.06,,,0.08,meteohub,2013-02-20 16:40:00,
2013-02-20 10:42:00,44.2,40.1,-100.00,ENE,73,14.0,18.0,85,0.06,,,0.08,meteohub,2013-02-20 16:42:00,
2013-02-20 10:44:00,44.1,39.6,-100.00,East,83,13.0,18.0,84,0.06,,,0.08,meteohub,2013-02-20 16:44:00,
2013-02-20 10:46:00,44.1,39.2,-100.00,ESE,102,10.0,21.0,83,0.05,,,0.08,meteohub,2013-02-20 16:46:00,
2013-02-20 10:47:00,44.1,39.6,-100.00,East,89,7.0,21.0,84,0.05,,,0.08,meteohub,2013-02-20 16:47:00,
2013-02-20 10:49:00,44.2,39.7,-100.00,East,95,10.0,21.0,84,0.05,,,0.08,meteohub,2013-02-20 16:49:00,
2013-02-20 10:51:00,44.2,39.7,-100.00,East,92,5.0,21.0,84,0.04,,,0.08,meteohub,2013-02-20 16:51:00,
2013-02-20 10:52:00,44.2,39.7,-100.00,ESE,105,15.0,21.0,84,0.04,,,0.08,meteohub,2013-02-20 16:52:00,
2013-02-20 10:54:00,44.2,39.4,-100.00,ESE,102,7.0,21.0,83,0.04,,,0.08,meteohub,2013-02-20 16:54:00,
2013-02-20 10:56:00,44.1,38.8,-100.00,East,98,16.0,21.0,82,0.03,,,0.08,meteohub,2013-02-20 16:56:00,
2013-02-20 10:58:00,44.1,38.7,-100.00,East,96,18.0,21.0,81,0.03,,,0.08,meteohub,2013-02-20 16:58:00,
2013-02-20 10:59:00,43.9,38.5,-100.00,ESE,102,15.0,21.0,81,0.03,,,0.08,meteohub,2013-02-20 16:59:00,
2013-02-20 11:02:00,43.9,38.5,-100.00,East,86,12.0,19.0,81,0.03,,,0.08,meteohub,2013-02-20 17:02:00,
2013-02-20 11:03:00,43.9,38.5,-100.00,East,88,9.0,19.0,81,0.03,,,0.08,meteohub,2013-02-20 17:03:00,
2013-02-20 11:04:00,43.9,38.5,-100.00,East,98,12.0,19.0,81,0.03,,,0.08,meteohub,2013-02-20 17:04:00,
2013-02-20 11:05:00,43.9,38.5,-100.00,East,98,10.0,19.0,81,0.03,,,0.08,meteohub,2013-02-20 17:05:00,
2013-02-20 11:07:00,43.9,38.5,-100.00,ESE,105,6.0,20.0,81,0.02,,,0.08,meteohub,2013-02-20 17:07:00,
2013-02-20 11:09:00,43.9,38.5,-100.00,ESE,116,10.0,20.0,81,0.02,,,0.08,meteohub,2013-02-20 17:09:00,
2013-02-20 11:10:00,43.5,38.1,-100.00,East,98,14.0,20.0,81,0.02,,,0.08,meteohub,2013-02-20 17:10:00,
2013-02-20 11:12:00,43.5,38.1,-100.00,East,88,13.0,20.0,81,0.02,,,0.08,meteohub,2013-02-20 17:12:00,
2013-02-20 11:14:00,43.5,38.1,-100.00,East,88,10.0,20.0,81,0.02,,,0.08,meteohub,2013-02-20 17:14:00,
2013-02-20 11:15:00,43.3,38.3,-100.00,ESE,105,14.0,20.0,82,0.02,,,0.08,meteohub,2013-02-20 17:15:00,
2013-02-20 11:17:00,43.3,38.3,-100.00,East,92,9.0,20.0,82,0.01,,,0.08,meteohub,2013-02-20 17:17:00,
2013-02-20 11:19:00,43.3,38.3,-100.00,East,86,7.0,20.0,82,0.01,,,0.08,meteohub,2013-02-20 17:19:00,
2013-02-20 11:20:00,43.3,38.3,-100.00,East,94,11.0,20.0,82,0.01,,,0.08,meteohub,2013-02-20 17:20:00,
2013-02-20 11:22:00,43.3,38.3,-100.00,ESE,112,10.0,20.0,82,0.01,,,0.08,meteohub,2013-02-20 17:22:00,
2013-02-20 11:25:00,43.3,38.3,-100.00,ESE,108,13.0,20.0,82,0.01,,,0.08,meteohub,2013-02-20 17:25:00,
2013-02-20 11:27:00,43.3,37.9,-100.00,East,100,16.0,20.0,81,0.01,,,0.08,meteohub,2013-02-20 17:27:00,
2013-02-20 11:30:00,43.3,37.9,-100.00,East,100,10.0,20.0,81,0.01,,,0.08,meteohub,2013-02-20 17:30:00,
2013-02-20 11:32:00,43.3,37.9,-100.00,East,97,11.0,20.0,81,0.01,,,0.08,meteohub,2013-02-20 17:32:00,
2013-02-20 11:35:00,43.3,37.9,-100.00,ESE,117,18.0,19.0,81,0.01,,,0.08,meteohub,2013-02-20 17:35:00,
2013-02-20 11:36:00,43.3,37.9,-100.00,East,90,9.0,19.0,81,0.01,,,0.08,meteohub,2013-02-20 17:36:00,
2013-02-20 11:37:00,43.3,37.9,-100.00,ESE,107,11.0,19.0,81,0.01,,,0.08,meteohub,2013-02-20 17:37:00,
2013-02-20 11:40:00,43.3,37.6,-100.00,East,92,12.0,19.0,80,0.00,,,0.08,meteohub,2013-02-20 17:40:00,
2013-02-20 11:41:00,43.3,37.6,-100.00,East,95,14.0,19.0,80,0.00,,,0.08,meteohub,2013-02-20 17:41:00,
2013-02-20 11:42:00,43.3,37.6,-100.00,East,92,11.0,19.0,80,0.00,,,0.08,meteohub,2013-02-20 17:42:00,
2013-02-20 11:46:00,43.3,37.6,-100.00,ESE,117,15.0,19.0,80,0.00,,,0.08,meteohub,2013-02-20 17:46:00,
2013-02-20 11:48:00,43.3,37.6,-100.00,ESE,109,12.0,19.0,80,0.00,,,0.08,meteohub,2013-02-20 17:48:00,
2013-02-20 11:51:00,43.3,37.2,-100.00,East,90,7.0,19.0,79,0.00,,,0.08,meteohub,2013-02-20 17:51:00,
2013-02-20 11:52:00,43.3,37.6,-100.00,ESE,109,15.0,19.0,80,0.00,,,0.08,meteohub,2013-02-20 17:52:00,
2013-02-20 11:53:00,43.3,37.2,-100.00,East,96,15.0,19.0,79,0.00,,,0.08,meteohub,2013-02-20 17:53:00,
2013-02-20 11:56:00,43.3,37.2,-100.00,East,98,10.0,20.0,79,0.00,,,0.08,meteohub,2013-02-20 17:56:00,
2013-02-20 11:57:00,43.3,37.2,-100.00,ESE,114,12.0,20.0,79,0.00,,,0.08,meteohub,2013-02-20 17:57:00,
2013-02-20 11:58:00,43.3,37.6,-100.00,East,95,8.0,20.0,80,0.00,,,0.08,meteohub,2013-02-20 17:58:00,
2013-02-20 12:01:00,43.3,37.6,-100.00,East,100,12.0,20.0,80,0.00,,,0.08,meteohub,2013-02-20 18:01:00,
2013-02-20 12:02:00,43.3,37.6,-100.00,East,90,11.0,20.0,80,0.00,,,0.08,meteohub,2013-02-20 18:02:00,
2013-02-20 12:04:00,43.2,37.0,-100.00,ESE,122,6.0,20.0,79,0.00,,,0.08,meteohub,2013-02-20 18:04:00,
2013-02-20 12:07:00,43.2,36.7,-100.00,ESE,110,14.0,20.0,78,0.00,,,0.08,meteohub,2013-02-20 18:07:00,
2013-02-20 12:08:00,43.2,36.7,-100.00,East,101,10.0,20.0,78,0.00,,,0.08,meteohub,2013-02-20 18:08:00,
2013-02-20 12:09:00,43.2,36.7,-100.00,East,101,14.0,20.0,78,0.00,,,0.08,meteohub,2013-02-20 18:09:00,
2013-02-20 12:12:00,43.2,36.5,-100.00,East,98,11.0,19.0,77,0.00,,,0.08,meteohub,2013-02-20 18:12:00,
2013-02-20 12:13:00,43.2,36.5,-100.00,ESE,103,9.0,19.0,77,0.00,,,0.08,meteohub,2013-02-20 18:13:00,
2013-02-20 12:14:00,43.2,36.7,-100.00,ESE,107,10.0,19.0,78,0.00,,,0.08,meteohub,2013-02-20 18:14:00,
2013-02-20 12:17:00,43.2,36.5,-100.00,ESE,103,10.0,19.0,77,0.00,,,0.08,meteohub,2013-02-20 18:17:00,
2013-02-20 12:18:00,43.2,36.7,-100.00,ESE,105,10.0,19.0,78,0.00,,,0.08,meteohub,2013-02-20 18:18:00,
2013-02-20 12:19:00,43.2,37.0,-100.00,East,101,16.0,19.0,79,0.00,,,0.08,meteohub,2013-02-20 18:19:00,
2013-02-20 12:22:00,43.2,36.7,-100.00,ESE,115,11.0,19.0,78,0.00,,,0.08,meteohub,2013-02-20 18:22:00,
2013-02-20 12:23:00,43.2,36.7,-100.00,East,95,9.0,19.0,78,0.00,,,0.08,meteohub,2013-02-20 18:23:00,
2013-02-20 12:24:00,43.2,36.7,-100.00,East,99,6.0,19.0,78,0.00,,,0.08,meteohub,2013-02-20 18:24:00,
2013-02-20 12:25:00,43.2,36.7,-100.00,East,97,8.0,19.0,78,0.00,,,0.08,meteohub,2013-02-20 18:25:00,
2013-02-20 12:27:00,43.2,36.7,-100.00,ESE,103,8.0,22.0,78,0.00,,,0.08,meteohub,2013-02-20 18:27:00,
2013-02-20 12:28:00,43.2,36.7,-100.00,ESE,109,15.0,22.0,78,0.00,,,0.08,meteohub,2013-02-20 18:28:00,
2013-02-20 12:30:00,43.2,36.7,-100.00,East,100,8.0,22.0,78,0.00,,,0.08,meteohub,2013-02-20 18:30:00,
2013-02-20 12:32:00,43.2,36.7,-100.00,East,97,8.0,22.0,78,0.00,,,0.08,meteohub,2013-02-20 18:32:00,
2013-02-20 12:33:00,43.2,36.7,-100.00,ESE,105,10.0,22.0,78,0.00,,,0.08,meteohub,2013-02-20 18:33:00,
2013-02-20 12:35:00,43.2,36.5,-100.00,ESE,107,10.0,22.0,77,0.00,,,0.08,meteohub,2013-02-20 18:35:00,
2013-02-20 12:36:00,43.2,36.7,-100.00,ESE,119,10.0,22.0,78,0.00,,,0.08,meteohub,2013-02-20 18:36:00,
2013-02-20 12:37:00,43.2,36.5,-100.00,East,100,13.0,22.0,77,0.00,,,0.08,meteohub,2013-02-20 18:37:00,
2013-02-20 12:38:00,43.2,36.5,-100.00,ESE,106,8.0,22.0,77,0.00,,,0.08,meteohub,2013-02-20 18:38:00,
2013-02-20 12:40:00,43.3,36.7,-100.00,ESE,109,11.0,20.0,77,0.00,,,0.08,meteohub,2013-02-20 18:40:00,
2013-02-20 12:41:00,43.3,36.7,-100.00,ESE,102,9.0,20.0,77,0.00,,,0.08,meteohub,2013-02-20 18:41:00,
2013-02-20 12:43:00,43.3,36.7,-100.00,ESE,106,6.0,20.0,77,0.00,,,0.08,meteohub,2013-02-20 18:43:00,
2013-02-20 12:45:00,43.3,36.3,-100.00,ESE,110,9.0,16.0,76,0.00,,,0.08,meteohub,2013-02-20 18:45:00,
2013-02-20 12:46:00,43.3,36.3,-100.00,ESE,103,12.0,16.0,76,0.00,,,0.08,meteohub,2013-02-20 18:46:00,
2013-02-20 12:48:00,43.3,36.0,-100.00,ESE,111,5.0,16.0,75,0.00,,,0.08,meteohub,2013-02-20 18:48:00,
2013-02-20 12:49:00,43.3,36.3,-100.00,SE,129,12.0,16.0,76,0.00,,,0.08,meteohub,2013-02-20 18:49:00,
2013-02-20 12:51:00,43.3,36.3,-100.00,East,96,12.0,18.0,76,0.00,,,0.08,meteohub,2013-02-20 18:51:00,
2013-02-20 12:53:00,43.3,36.3,-100.00,East,101,7.0,18.0,76,0.00,,,0.08,meteohub,2013-02-20 18:53:00,
2013-02-20 12:54:00,43.3,36.7,-100.00,East,99,9.0,18.0,77,0.00,,,0.08,meteohub,2013-02-20 18:54:00,
2013-02-20 12:56:00,43.3,36.3,-100.00,ESE,109,12.0,18.0,76,0.00,,,0.08,meteohub,2013-02-20 18:56:00,
2013-02-20 12:57:00,43.3,36.3,-100.00,ESE,113,12.0,18.0,76,0.00,,,0.08,meteohub,2013-02-20 18:57:00,
2013-02-20 12:58:00,43.3,36.3,-100.00,ESE,103,8.0,18.0,76,0.00,,,0.08,meteohub,2013-02-20 18:58:00,
2013-02-20 13:00:00,43.3,36.7,-100.00,East,97,14.0,18.0,77,0.00,,,0.08,meteohub,2013-02-20 19:00:00,
2013-02-20 13:01:00,43.3,36.7,-100.00,ESE,104,7.0,18.0,77,0.00,,,0.08,meteohub,2013-02-20 19:01:00,
2013-02-20 13:02:00,43.3,36.7,-100.00,ESE,104,7.0,18.0,77,0.00,,,0.08,meteohub,2013-02-20 19:02:00,
2013-02-20 13:03:00,43.3,36.7,-100.00,ESE,112,13.0,18.0,77,0.00,,,0.08,meteohub,2013-02-20 19:03:00,
2013-02-20 13:05:00,43.3,36.7,-100.00,ESE,107,15.0,18.0,77,0.00,,,0.08,meteohub,2013-02-20 19:05:00,
2013-02-20 13:06:00,43.3,36.3,-100.00,ESE,109,8.0,18.0,76,0.00,,,0.08,meteohub,2013-02-20 19:06:00,
2013-02-20 13:07:00,43.3,36.3,-100.00,ESE,104,10.0,18.0,76,0.00,,,0.08,meteohub,2013-02-20 19:07:00,
2013-02-20 13:08:00,43.3,36.7,-100.00,ESE,103,6.0,18.0,77,0.00,,,0.08,meteohub,2013-02-20 19:08:00,
2013-02-20 13:10:00,43.5,37.0,-100.00,East,90,9.0,18.0,78,0.00,,,0.08,meteohub,2013-02-20 19:10:00,
2013-02-20 13:11:00,43.5,36.9,-100.00,ESE,110,10.0,19.0,77,0.00,,,0.08,meteohub,2013-02-20 19:11:00,
2013-02-20 13:12:00,43.5,37.0,-100.00,ESE,105,7.0,19.0,78,0.00,,,0.08,meteohub,2013-02-20 19:12:00,
2013-02-20 13:13:00,43.5,37.0,-100.00,SE,127,15.0,19.0,78,0.00,,,0.08,meteohub,2013-02-20 19:13:00,
2013-02-20 13:15:00,43.5,36.9,-100.00,ESE,119,11.0,19.0,77,0.00,,,0.08,meteohub,2013-02-20 19:15:00,
2013-02-20 13:17:00,43.5,36.5,-100.00,East,100,9.0,19.0,76,0.00,,,0.08,meteohub,2013-02-20 19:17:00,
2013-02-20 13:18:00,43.5,36.9,-100.00,ESE,107,10.0,19.0,77,0.00,,,0.08,meteohub,2013-02-20 19:18:00,
2013-02-20 13:20:00,43.5,36.5,-100.00,East,96,7.0,19.0,76,0.00,,,0.08,meteohub,2013-02-20 19:20:00,
2013-02-20 13:22:00,43.5,35.8,-100.00,ESE,122,16.0,19.0,74,0.00,,,0.08,meteohub,2013-02-20 19:22:00,
2013-02-20 13:23:00,43.5,35.8,-100.00,ESE,113,9.0,19.0,74,0.00,,,0.08,meteohub,2013-02-20 19:23:00,
2013-02-20 13:25:00,43.5,35.4,-100.00,SE,130,11.0,19.0,73,0.00,,,0.08,meteohub,2013-02-20 19:25:00,
2013-02-20 13:28:00,43.5,34.7,-100.00,SE,124,17.0,19.0,71,0.00,,,0.08,meteohub,2013-02-20 19:28:00,
2013-02-20 13:29:00,43.5,35.1,-100.00,ESE,107,18.0,19.0,72,0.00,,,0.08,meteohub,2013-02-20 19:29:00,
2013-02-20 13:30:00,43.5,34.7,-100.00,ESE,121,7.0,19.0,71,0.00,,,0.08,meteohub,2013-02-20 19:30:00,
2013-02-20 13:33:00,43.9,35.4,-100.00,ESE,112,16.0,21.0,72,0.00,,,0.08,meteohub,2013-02-20 19:33:00,
2013-02-20 13:34:00,43.9,35.4,-100.00,ESE,118,16.0,21.0,72,0.00,,,0.08,meteohub,2013-02-20 19:34:00,
2013-02-20 13:35:00,43.9,35.1,-100.00,East,97,15.0,21.0,71,0.00,,,0.08,meteohub,2013-02-20 19:35:00,
2013-02-20 13:38:00,43.9,35.1,-100.00,ESE,111,11.0,21.0,71,0.00,,,0.08,meteohub,2013-02-20 19:38:00,
2013-02-20 13:39:00,43.9,35.1,-100.00,ESE,105,6.0,21.0,71,0.00,,,0.08,meteohub,2013-02-20 19:39:00,
2013-02-20 13:41:00,43.9,35.4,-100.00,SE,126,12.0,25.0,72,0.00,,,0.08,meteohub,2013-02-20 19:41:00,
2013-02-20 13:44:00,44.1,35.2,-100.00,ESE,109,14.0,25.0,71,0.00,,,0.08,meteohub,2013-02-20 19:44:00,
2013-02-20 13:46:00,43.9,34.7,-100.00,ESE,112,16.0,25.0,70,0.00,,,0.08,meteohub,2013-02-20 19:46:00,
2013-02-20 13:49:00,44.1,35.2,-100.00,ESE,115,11.0,25.0,71,0.00,,,0.08,meteohub,2013-02-20 19:49:00,
2013-02-20 13:52:00,43.9,34.7,-100.00,East,91,14.0,25.0,70,0.00,,,0.08,meteohub,2013-02-20 19:52:00,
2013-02-20 13:54:00,44.1,35.2,-100.00,ESE,121,16.0,25.0,71,0.00,,,0.08,meteohub,2013-02-20 19:54:00,
2013-02-20 13:55:00,44.1,35.2,-100.00,ESE,122,14.0,25.0,71,0.00,,,0.08,meteohub,2013-02-20 19:55:00,
2013-02-20 13:57:00,43.9,35.1,-100.00,SE,128,19.0,21.0,71,0.00,,,0.08,meteohub,2013-02-20 19:57:00,
2013-02-20 13:59:00,43.9,35.1,-100.00,ESE,121,12.0,21.0,71,0.00,,,0.08,meteohub,2013-02-20 19:59:00,
2013-02-20 14:00:00,43.9,35.1,-100.00,ESE,108,14.0,21.0,71,0.00,,,0.08,meteohub,2013-02-20 20:00:00,
2013-02-20 14:01:00,43.9,34.7,-100.00,ESE,113,13.0,23.0,70,0.00,,,0.08,meteohub,2013-02-20 20:01:00,
2013-02-20 14:02:00,43.9,34.7,-100.00,ESE,110,10.0,23.0,70,0.00,,,0.08,meteohub,2013-02-20 20:02:00,
2013-02-20 14:05:00,44.1,35.2,-100.00,East,82,15.0,23.0,71,0.00,,,0.08,meteohub,2013-02-20 20:05:00,
2013-02-20 14:06:00,43.9,34.3,-100.00,East,98,13.0,23.0,69,0.00,,,0.08,meteohub,2013-02-20 20:06:00,
2013-02-20 14:07:00,43.9,34.7,-100.00,ESE,110,12.0,23.0,70,0.00,,,0.08,meteohub,2013-02-20 20:07:00,
2013-02-20 14:10:00,43.9,35.1,-100.00,East,101,21.0,23.0,71,0.00,,,0.08,meteohub,2013-02-20 20:10:00,
2013-02-20 14:11:00,43.9,35.1,-100.00,SE,134,19.0,23.0,71,0.00,,,0.08,meteohub,2013-02-20 20:11:00,
2013-02-20 14:13:00,43.9,34.7,-100.00,ESE,113,12.0,23.0,70,0.00,,,0.08,meteohub,2013-02-20 20:13:00,
2013-02-20 14:15:00,43.9,34.7,-100.00,East,98,12.0,23.0,70,0.00,,,0.08,meteohub,2013-02-20 20:15:00,
2013-02-20 14:16:00,43.9,34.7,-100.00,ESE,114,12.0,23.0,70,0.00,,,0.08,meteohub,2013-02-20 20:16:00,
2013-02-20 14:17:00,43.9,34.7,-100.00,ESE,111,13.0,23.0,70,0.00,,,0.08,meteohub,2013-02-20 20:17:00,
2013-02-20 14:18:00,43.9,34.7,-100.00,SE,128,15.0,23.0,70,0.00,,,0.08,meteohub,2013-02-20 20:18:00,
2013-02-20 14:21:00,44.1,35.2,-100.00,SE,127,17.0,23.0,71,0.00,,,0.08,meteohub,2013-02-20 20:21:00,
2013-02-20 14:22:00,43.9,34.7,-100.00,ESE,114,13.0,23.0,70,0.00,,,0.08,meteohub,2013-02-20 20:22:00,
2013-02-20 14:23:00,43.9,34.7,-100.00,ESE,103,10.0,23.0,70,0.00,,,0.08,meteohub,2013-02-20 20:23:00,
2013-02-20 14:26:00,43.9,35.4,-100.00,ESE,102,10.0,23.0,72,0.00,,,0.08,meteohub,2013-02-20 20:26:00,
2013-02-20 14:28:00,43.9,35.8,-100.00,ESE,117,12.0,23.0,73,0.00,,,0.08,meteohub,2013-02-20 20:28:00,
2013-02-20 14:31:00,43.9,35.4,-100.00,ESE,120,6.0,20.0,72,0.00,,,0.08,meteohub,2013-02-20 20:31:00,
2013-02-20 14:33:00,43.9,35.8,-100.00,SE,126,10.0,20.0,73,0.00,,,0.08,meteohub,2013-02-20 20:33:00,
2013-02-20 14:34:00,43.5,35.4,-100.00,ESE,103,7.0,20.0,73,0.00,,,0.08,meteohub,2013-02-20 20:34:00,
2013-02-20 14:36:00,43.5,35.4,-100.00,ESE,115,10.0,18.0,73,0.00,,,0.08,meteohub,2013-02-20 20:36:00,
2013-02-20 14:37:00,43.5,35.4,-100.00,ESE,111,10.0,18.0,73,0.00,,,0.08,meteohub,2013-02-20 20:37:00,
2013-02-20 14:38:00,43.5,35.8,-100.00,ESE,111,18.0,18.0,74,0.00,,,0.08,meteohub,2013-02-20 20:38:00,
2013-02-20 14:40:00,43.5,35.4,-100.00,East,101,6.0,18.0,73,0.00,,,0.08,meteohub,2013-02-20 20:40:00,
2013-02-20 14:41:00,43.5,35.4,-100.00,ESE,117,13.0,18.0,73,0.00,,,0.08,meteohub,2013-02-20 20:41:00,
2013-02-20 14:42:00,43.5,35.4,-100.00,East,98,15.0,18.0,73,0.00,,,0.08,meteohub,2013-02-20 20:42:00,
2013-02-20 14:43:00,43.5,35.1,-100.00,East,94,16.0,18.0,72,0.00,,,0.08,meteohub,2013-02-20 20:43:00,
2013-02-20 14:45:00,43.3,34.9,-100.00,East,87,13.0,20.0,72,0.00,,,0.08,meteohub,2013-02-20 20:45:00,
2013-02-20 14:47:00,43.3,34.9,-100.00,ESE,109,11.0,20.0,72,0.00,,,0.08,meteohub,2013-02-20 20:47:00,
2013-02-20 14:49:00,43.3,34.9,-100.00,ESE,121,12.0,20.0,72,0.00,,,0.08,meteohub,2013-02-20 20:49:00,
2013-02-20 14:51:00,43.3,34.9,-100.00,ESE,103,6.0,21.0,72,0.00,,,0.08,meteohub,2013-02-20 20:51:00,
2013-02-20 14:52:00,43.5,35.1,-100.00,ESE,104,6.0,21.0,72,0.00,,,0.08,meteohub,2013-02-20 20:52:00,
2013-02-20 14:55:00,43.5,35.1,-100.00,ESE,108,13.0,21.0,72,0.00,,,0.08,meteohub,2013-02-20 20:55:00,
2013-02-20 14:56:00,43.5,35.1,-100.00,ESE,103,14.0,21.0,72,0.00,,,0.08,meteohub,2013-02-20 20:56:00,
2013-02-20 14:57:00,43.5,35.1,-100.00,ESE,115,8.0,21.0,72,0.00,,,0.08,meteohub,2013-02-20 20:57:00,
2013-02-20 14:58:00,43.5,34.7,-100.00,SE,126,13.0,21.0,71,0.00,,,0.08,meteohub,2013-02-20 20:58:00,
2013-02-20 15:00:00,43.3,34.5,-100.00,ESE,115,10.0,19.0,71,0.00,,,0.08,meteohub,2013-02-20 21:00:00,
2013-02-20 15:02:00,43.5,34.7,-100.00,SE,126,14.0,19.0,71,0.00,,,0.08,meteohub,2013-02-20 21:02:00,
2013-02-20 15:03:00,43.5,34.7,-100.00,ESE,103,11.0,19.0,71,0.00,,,0.08,meteohub,2013-02-20 21:03:00,
2013-02-20 15:06:00,43.5,35.1,-100.00,ESE,113,11.0,17.0,72,0.00,,,0.08,meteohub,2013-02-20 21:06:00,
2013-02-20 15:07:00,43.5,34.7,-100.00,ENE,74,11.0,17.0,71,0.00,,,0.08,meteohub,2013-02-20 21:07:00,
2013-02-20 15:08:00,43.5,34.7,-100.00,ESE,105,12.0,17.0,71,0.00,,,0.08,meteohub,2013-02-20 21:08:00,
2013-02-20 15:11:00,43.9,35.1,-100.00,ESE,110,10.0,17.0,71,0.00,,,0.08,meteohub,2013-02-20 21:11:00,
2013-02-20 15:12:00,43.9,35.4,-100.00,East,94,10.0,17.0,72,0.00,,,0.08,meteohub,2013-02-20 21:12:00,
2013-02-20 15:13:00,43.9,35.4,-100.00,ESE,107,6.0,17.0,72,0.00,,,0.08,meteohub,2013-02-20 21:13:00,
2013-02-20 15:14:00,43.9,35.4,-100.00,ESE,109,11.0,17.0,72,0.00,,,0.08,meteohub,2013-02-20 21:14:00,
2013-02-20 15:17:00,43.5,35.1,-100.00,ESE,105,10.0,17.0,72,0.00,,,0.08,meteohub,2013-02-20 21:17:00,
2013-02-20 15:18:00,43.5,35.1,-100.00,East,87,8.0,17.0,72,0.00,,,0.08,meteohub,2013-02-20 21:18:00,
2013-02-20 15:19:00,43.5,35.1,-100.00,East,89,13.0,17.0,72,0.00,,,0.08,meteohub,2013-02-20 21:19:00,
2013-02-20 15:22:00,43.5,35.4,-100.00,ESE,119,13.0,17.0,73,0.00,,,0.08,meteohub,2013-02-20 21:22:00,
2013-02-20 15:24:00,43.5,35.4,-100.00,ESE,119,12.0,17.0,73,0.00,,,0.08,meteohub,2013-02-20 21:24:00,
2013-02-20 15:27:00,43.5,34.7,-100.00,ESE,107,17.0,18.0,71,0.00,,,0.08,meteohub,2013-02-20 21:27:00,
2013-02-20 15:28:00,43.5,34.7,-100.00,ESE,115,12.0,18.0,71,0.00,,,0.08,meteohub,2013-02-20 21:28:00,
2013-02-20 15:29:00,43.5,34.7,-100.00,ESE,105,9.0,18.0,71,0.00,,,0.08,meteohub,2013-02-20 21:29:00,
2013-02-20 15:30:00,43.5,34.7,-100.00,ESE,119,13.0,18.0,71,0.00,,,0.08,meteohub,2013-02-20 21:30:00,
2013-02-20 15:32:00,43.5,34.3,-100.00,SE,126,16.0,20.0,70,0.00,,,0.08,meteohub,2013-02-20 21:32:00,
2013-02-20 15:33:00,43.5,34.3,-100.00,ESE,114,17.0,20.0,70,0.00,,,0.08,meteohub,2013-02-20 21:33:00,
2013-02-20 15:35:00,43.9,34.7,-100.00,ESE,107,15.0,20.0,70,0.00,,,0.08,meteohub,2013-02-20 21:35:00,
2013-02-20 15:37:00,43.9,35.1,-100.00,ESE,107,19.0,23.0,71,0.00,,,0.08,meteohub,2013-02-20 21:37:00,
2013-02-20 15:39:00,43.9,34.7,-100.00,SE,125,15.0,23.0,70,0.00,,,0.08,meteohub,2013-02-20 21:39:00,
2013-02-20 15:40:00,43.9,34.7,-100.00,ESE,113,11.0,23.0,70,0.00,,,0.08,meteohub,2013-02-20 21:40:00,
2013-02-20 15:43:00,43.9,35.1,-100.00,ESE,116,10.0,23.0,71,0.00,,,0.08,meteohub,2013-02-20 21:43:00,
2013-02-20 15:44:00,43.9,35.1,-100.00,ESE,117,14.0,23.0,71,0.00,,,0.08,meteohub,2013-02-20 21:44:00,
2013-02-20 15:45:00,43.9,35.1,-100.00,ESE,111,16.0,23.0,71,0.00,,,0.08,meteohub,2013-02-20 21:45:00,
2013-02-20 15:48:00,43.9,35.4,-100.00,SE,126,12.0,23.0,72,0.00,,,0.08,meteohub,2013-02-20 21:48:00,
2013-02-20 15:49:00,43.9,35.4,-100.00,ESE,107,15.0,23.0,72,0.00,,,0.08,meteohub,2013-02-20 21:49:00,
2013-02-20 15:50:00,43.9,35.1,-100.00,East,94,17.0,21.0,71,0.00,,,0.08,meteohub,2013-02-20 21:50:00,
2013-02-20 15:51:00,43.9,35.4,-100.00,ESE,110,10.0,21.0,72,0.00,,,0.08,meteohub,2013-02-20 21:51:00,
2013-02-20 15:54:00,43.5,35.1,-100.00,ESE,102,10.0,21.0,72,0.00,,,0.08,meteohub,2013-02-20 21:54:00,
2013-02-20 15:55:00,43.5,35.1,-100.00,East,98,10.0,21.0,72,0.00,,,0.08,meteohub,2013-02-20 21:55:00,
2013-02-20 15:56:00,43.5,35.1,-100.00,ESE,104,11.0,19.0,72,0.00,,,0.08,meteohub,2013-02-20 21:56:00,
2013-02-20 15:59:00,43.5,35.1,-100.00,ESE,105,13.0,19.0,72,0.00,,,0.08,meteohub,2013-02-20 21:59:00,
2013-02-20 16:00:00,43.5,35.1,-100.00,East,85,6.0,19.0,72,0.00,,,0.08,meteohub,2013-02-20 22:00:00,
2013-02-20 16:01:00,43.5,35.1,-100.00,East,91,11.0,19.0,72,0.00,,,0.08,meteohub,2013-02-20 22:01:00,
2013-02-20 16:04:00,43.5,35.4,-100.00,East,99,10.0,19.0,73,0.00,,,0.08,meteohub,2013-02-20 22:04:00,
2013-02-20 16:06:00,43.5,35.1,-100.00,East,98,12.0,18.0,72,0.00,,,0.08,meteohub,2013-02-20 22:06:00,
2013-02-20 16:07:00,43.5,35.4,-100.00,East,101,7.0,18.0,73,0.00,,,0.08,meteohub,2013-02-20 22:07:00,
2013-02-20 16:10:00,43.5,35.8,-100.00,East,84,14.0,18.0,74,0.00,,,0.08,meteohub,2013-02-20 22:10:00,
2013-02-20 16:11:00,43.3,35.6,-100.00,East,90,10.0,18.0,74,0.00,,,0.08,meteohub,2013-02-20 22:11:00,
2013-02-20 16:12:00,43.3,36.0,-100.00,ESE,107,10.0,18.0,75,0.00,,,0.08,meteohub,2013-02-20 22:12:00,
2013-02-20 16:13:00,43.3,36.0,-100.00,East,100,6.0,18.0,75,0.00,,,0.08,meteohub,2013-02-20 22:13:00,
2013-02-20 16:15:00,43.3,36.3,-100.00,ENE,71,10.0,18.0,76,0.00,,,0.08,meteohub,2013-02-20 22:15:00,
2013-02-20 16:16:00,43.2,36.1,-100.00,ESE,103,13.0,16.0,76,0.00,,,0.08,meteohub,2013-02-20 22:16:00,
2013-02-20 16:17:00,43.2,36.1,-100.00,East,95,10.0,16.0,76,0.00,,,0.08,meteohub,2013-02-20 22:17:00,
2013-02-20 16:18:00,43.2,36.1,-100.00,East,97,11.0,16.0,76,0.00,,,0.08,meteohub,2013-02-20 22:18:00,
2013-02-20 16:20:00,43.0,36.0,-100.00,East,85,14.0,16.0,76,0.00,,,0.08,meteohub,2013-02-20 22:20:00,
2013-02-20 16:21:00,43.0,36.0,-100.00,East,90,11.0,17.0,76,0.00,,,0.08,meteohub,2013-02-20 22:21:00,
2013-02-20 16:22:00,43.0,36.3,-100.00,East,90,11.0,17.0,77,0.00,,,0.08,meteohub,2013-02-20 22:22:00,
2013-02-20 16:23:00,43.0,36.3,-100.00,East,98,10.0,17.0,77,0.00,,,0.08,meteohub,2013-02-20 22:23:00,
2013-02-20 16:25:00,43.0,36.3,-100.00,East,84,11.0,17.0,77,0.00,,,0.08,meteohub,2013-02-20 22:25:00,
2013-02-20 16:27:00,42.8,36.1,-100.00,ESE,107,12.0,17.0,77,0.00,,,0.08,meteohub,2013-02-20 22:27:00,
2013-02-20 16:28:00,42.8,36.1,-100.00,East,101,12.0,17.0,77,0.00,,,0.08,meteohub,2013-02-20 22:28:00,
2013-02-20 16:30:00,42.6,36.0,-100.00,East,89,10.0,17.0,77,0.00,,,0.08,meteohub,2013-02-20 22:30:00,
2013-02-20 16:32:00,42.6,36.0,-100.00,ESE,109,12.0,17.0,77,0.00,,,0.08,meteohub,2013-02-20 22:32:00,
2013-02-20 16:33:00,42.6,36.0,-100.00,East,94,12.0,17.0,77,0.00,,,0.08,meteohub,2013-02-20 22:33:00,
2013-02-20 16:35:00,42.4,35.8,-100.00,ENE,78,15.0,19.0,77,0.00,,,0.08,meteohub,2013-02-20 22:35:00,
2013-02-20 16:37:00,42.3,35.6,-100.00,East,88,14.0,19.0,77,0.00,,,0.08,meteohub,2013-02-20 22:37:00,
2013-02-20 16:39:00,42.3,36.0,-100.00,East,81,12.0,19.0,78,0.00,,,0.08,meteohub,2013-02-20 22:39:00,
2013-02-20 16:41:00,42.3,36.0,-100.00,ENE,77,9.0,19.0,78,0.00,,,0.08,meteohub,2013-02-20 22:41:00,
2013-02-20 16:42:00,42.3,36.0,-100.00,East,84,12.0,19.0,78,0.00,,,0.08,meteohub,2013-02-20 22:42:00,
2013-02-20 16:44:00,42.3,36.0,-100.00,East,89,11.0,19.0,78,0.00,,,0.08,meteohub,2013-02-20 22:44:00,
2013-02-20 16:46:00,42.1,36.0,-100.00,East,92,15.0,19.0,79,0.00,,,0.08,meteohub,2013-02-20 22:46:00,
2013-02-20 16:48:00,41.9,35.8,-100.00,East,79,13.0,19.0,79,0.00,,,0.08,meteohub,2013-02-20 22:48:00,
2013-02-20 16:49:00,41.9,35.8,-100.00,East,97,10.0,19.0,79,0.00,,,0.08,meteohub,2013-02-20 22:49:00,
2013-02-20 16:51:00,41.7,35.8,-100.00,East,100,16.0,18.0,79,0.00,,,0.08,meteohub,2013-02-20 22:51:00,
2013-02-20 16:53:00,41.5,35.6,-100.00,ENE,61,14.0,18.0,79,0.00,,,0.08,meteohub,2013-02-20 22:53:00,
2013-02-20 16:54:00,41.7,35.8,-100.00,East,86,16.0,18.0,79,0.00,,,0.08,meteohub,2013-02-20 22:54:00,
2013-02-20 16:55:00,41.7,35.8,-100.00,ENE,78,12.0,18.0,79,0.00,,,0.08,meteohub,2013-02-20 22:55:00,
2013-02-20 16:56:00,41.5,35.6,-100.00,East,84,10.0,17.0,79,0.00,,,0.08,meteohub,2013-02-20 22:56:00,
2013-02-20 16:58:00,41.5,35.6,-100.00,East,86,11.0,17.0,79,0.00,,,0.08,meteohub,2013-02-20 22:58:00,
2013-02-20 17:00:00,41.5,35.6,-100.00,East,99,13.0,17.0,79,0.00,,,0.08,meteohub,2013-02-20 23:00:00,
2013-02-20 17:02:00,41.5,35.6,-100.00,East,98,11.0,21.0,79,0.00,,,0.08,meteohub,2013-02-20 23:02:00,
2013-02-20 17:03:00,41.5,35.6,-100.00,ENE,78,16.0,21.0,79,0.00,,,0.08,meteohub,2013-02-20 23:03:00,
2013-02-20 17:05:00,41.5,35.6,-100.00,East,89,13.0,21.0,79,0.00,,,0.08,meteohub,2013-02-20 23:05:00,
2013-02-20 17:07:00,41.5,35.6,-100.00,ESE,108,13.0,21.0,79,0.00,,,0.08,meteohub,2013-02-20 23:07:00,
2013-02-20 17:08:00,41.5,35.8,-100.00,East,94,13.0,21.0,80,0.00,,,0.08,meteohub,2013-02-20 23:08:00,
2013-02-20 17:10:00,41.5,35.8,-100.00,East,85,7.0,21.0,80,0.00,,,0.08,meteohub,2013-02-20 23:10:00,
2013-02-20 17:11:00,41.5,35.8,-100.00,East,99,13.0,17.0,80,0.00,,,0.08,meteohub,2013-02-20 23:11:00,
2013-02-20 17:12:00,41.5,35.8,-100.00,ESE,105,15.0,17.0,80,0.00,,,0.08,meteohub,2013-02-20 23:12:00,
2013-02-20 17:13:00,41.5,35.8,-100.00,East,82,16.0,17.0,80,0.00,,,0.08,meteohub,2013-02-20 23:13:00,
2013-02-20 17:15:00,41.5,35.6,-100.00,ESE,104,15.0,17.0,79,0.00,,,0.08,meteohub,2013-02-20 23:15:00,
2013-02-20 17:17:00,41.5,35.6,-100.00,East,94,16.0,19.0,79,0.00,,,0.08,meteohub,2013-02-20 23:17:00,
2013-02-20 17:19:00,41.5,35.6,-100.00,ESE,110,12.0,19.0,79,0.00,,,0.08,meteohub,2013-02-20 23:19:00,
2013-02-20 17:21:00,41.4,35.4,-100.00,East,98,13.0,19.0,79,0.00,,,0.08,meteohub,2013-02-20 23:21:00,
2013-02-20 17:22:00,41.4,35.4,-100.00,East,95,10.0,19.0,79,0.00,,,0.08,meteohub,2013-02-20 23:22:00,
2013-02-20 17:24:00,41.4,35.4,-100.00,East,94,12.0,19.0,79,0.00,,,0.08,meteohub,2013-02-20 23:24:00,
2013-02-20 17:26:00,41.4,35.4,-100.00,East,101,18.0,19.0,79,0.00,,,0.08,meteohub,2013-02-20 23:26:00,
2013-02-20 17:27:00,41.2,35.2,-100.00,East,94,10.0,19.0,79,0.00,,,0.08,meteohub,2013-02-20 23:27:00,
2013-02-20 17:28:00,41.2,35.2,-100.00,East,96,10.0,19.0,79,0.00,,,0.08,meteohub,2013-02-20 23:28:00,
2013-02-20 17:29:00,41.2,35.2,-100.00,ESE,105,15.0,19.0,79,0.00,,,0.08,meteohub,2013-02-20 23:29:00,
2013-02-20 17:31:00,41.2,35.2,-100.00,ENE,77,15.0,19.0,79,0.00,,,0.08,meteohub,2013-02-20 23:31:00,
2013-02-20 17:32:00,41.2,35.2,-100.00,East,93,13.0,19.0,79,0.00,,,0.08,meteohub,2013-02-20 23:32:00,
2013-02-20 17:33:00,41.2,35.2,-100.00,East,101,12.0,19.0,79,0.00,,,0.08,meteohub,2013-02-20 23:33:00,
2013-02-20 17:34:00,41.2,35.2,-100.00,East,88,12.0,19.0,79,0.00,,,0.08,meteohub,2013-02-20 23:34:00,
2013-02-20 17:37:00,41.2,35.2,-100.00,ESE,109,13.0,19.0,79,0.00,,,0.08,meteohub,2013-02-20 23:37:00,
2013-02-20 17:38:00,41.2,35.2,-100.00,ESE,123,19.0,19.0,79,0.00,,,0.08,meteohub,2013-02-20 23:38:00,
2013-02-20 17:40:00,41.2,35.2,-100.00,East,100,13.0,19.0,79,0.00,,,0.08,meteohub,2013-02-20 23:40:00,
2013-02-20 17:42:00,41.2,35.2,-100.00,ESE,122,10.0,20.0,79,0.00,,,0.08,meteohub,2013-02-20 23:42:00,
2013-02-20 17:43:00,41.2,35.2,-100.00,East,81,7.0,20.0,79,0.00,,,0.08,meteohub,2013-02-20 23:43:00,
2013-02-20 17:45:00,41.2,35.2,-100.00,East,101,7.0,20.0,79,0.00,,,0.08,meteohub,2013-02-20 23:45:00,
2013-02-20 17:47:00,41.2,35.2,-100.00,East,88,15.0,20.0,79,0.00,,,0.08,meteohub,2013-02-20 23:47:00,
2013-02-20 17:48:00,40.8,34.9,-100.00,East,96,16.0,20.0,79,0.00,,,0.08,meteohub,2013-02-20 23:48:00,
2013-02-20 17:50:00,40.8,34.9,-100.00,East,97,13.0,20.0,79,0.00,,,0.08,meteohub,2013-02-20 23:50:00,
2013-02-20 17:52:00,40.8,34.9,-100.00,East,99,18.0,20.0,79,0.00,,,0.08,meteohub,2013-02-20 23:52:00,
2013-02-20 17:54:00,40.8,34.9,-100.00,ESE,111,15.0,20.0,79,0.00,,,0.08,meteohub,2013-02-20 23:54:00,
2013-02-20 17:56:00,40.8,34.9,-100.00,East,90,10.0,19.0,79,0.00,,,0.08,meteohub,2013-02-20 23:56:00,
2013-02-20 17:57:00,40.8,34.9,-100.00,ESE,111,7.0,19.0,79,0.00,,,0.08,meteohub,2013-02-20 23:57:00,
2013-02-20 17:58:00,40.8,34.9,-100.00,East,95,12.0,19.0,79,0.00,,,0.08,meteohub,2013-02-20 23:58:00,
2013-02-20 17:59:00,40.8,34.9,-100.00,East,98,14.0,19.0,79,0.00,,,0.08,meteohub,2013-02-20 23:59:00,
2013-02-20 18:01:00,40.6,34.7,-100.00,East,89,15.0,19.0,79,0.00,,,0.08,meteohub,2013-02-21 00:01:00,
2013-02-20 18:02:00,40.6,34.7,-100.00,East,92,14.0,19.0,79,0.00,,,0.08,meteohub,2013-02-21 00:02:00,
2013-02-20 18:03:00,40.6,34.7,-100.00,East,84,8.0,19.0,79,0.00,,,0.08,meteohub,2013-02-21 00:03:00,
2013-02-20 18:05:00,40.6,34.7,-100.00,ENE,78,11.0,19.0,79,0.00,,,0.08,meteohub,2013-02-21 00:05:00,
2013-02-20 18:07:00,40.6,34.9,-100.00,East,82,11.0,21.0,80,0.00,,,0.08,meteohub,2013-02-21 00:07:00,
2013-02-20 18:08:00,40.6,34.9,-100.00,East,89,16.0,21.0,80,0.00,,,0.08,meteohub,2013-02-21 00:08:00,
2013-02-20 18:10:00,40.5,34.7,-100.00,East,90,11.0,21.0,80,0.00,,,0.08,meteohub,2013-02-21 00:10:00,
2013-02-20 18:12:00,40.5,34.7,-100.00,East,97,14.0,21.0,80,0.00,,,0.08,meteohub,2013-02-21 00:12:00,
2013-02-20 18:13:00,40.5,34.5,-100.00,East,88,10.0,21.0,79,0.00,,,0.08,meteohub,2013-02-21 00:13:00,
2013-02-20 18:15:00,40.5,34.5,-100.00,ENE,71,17.0,21.0,79,0.00,,,0.08,meteohub,2013-02-21 00:15:00,
2013-02-20 18:17:00,40.5,34.5,-100.00,East,90,9.0,19.0,79,0.00,,,0.08,meteohub,2013-02-21 00:17:00,
2013-02-20 18:19:00,40.5,34.5,-100.00,ESE,110,15.0,19.0,79,0.00,,,0.08,meteohub,2013-02-21 00:19:00,
2013-02-20 18:20:00,40.5,34.5,-100.00,East,82,5.0,19.0,79,0.00,,,0.08,meteohub,2013-02-21 00:20:00,
2013-02-20 18:22:00,40.5,34.5,-100.00,ENE,77,11.0,19.0,79,0.00,,,0.08,meteohub,2013-02-21 00:22:00,
2013-02-20 18:24:00,40.5,34.5,-100.00,East,101,7.0,19.0,79,0.00,,,0.08,meteohub,2013-02-21 00:24:00,
2013-02-20 18:26:00,40.5,34.5,-100.00,East,98,7.0,18.0,79,0.00,,,0.08,meteohub,2013-02-21 00:26:00,
2013-02-20 18:27:00,40.5,34.5,-100.00,East,86,8.0,18.0,79,0.00,,,0.08,meteohub,2013-02-21 00:27:00,
2013-02-20 18:29:00,40.5,34.5,-100.00,East,93,10.0,18.0,79,0.00,,,0.08,meteohub,2013-02-21 00:29:00,
2013-02-20 18:31:00,40.5,34.5,-100.00,ENE,75,14.0,18.0,79,0.00,,,0.08,meteohub,2013-02-21 00:31:00,
2013-02-20 18:32:00,40.5,34.5,-100.00,East,88,12.0,18.0,79,0.00,,,0.08,meteohub,2013-02-21 00:32:00,
2013-02-20 18:34:00,40.5,34.5,-100.00,East,79,7.0,18.0,79,0.00,,,0.08,meteohub,2013-02-21 00:34:00,
2013-02-20 18:35:00,40.5,34.5,-100.00,East,92,13.0,18.0,79,0.00,,,0.08,meteohub,2013-02-21 00:35:00,
2013-02-20 18:36:00,40.5,34.5,-100.00,ESE,106,9.0,18.0,79,0.00,,,0.08,meteohub,2013-02-21 00:36:00,
2013-02-20 18:37:00,40.5,34.5,-100.00,East,85,10.0,18.0,79,0.00,,,0.08,meteohub,2013-02-21 00:37:00,
2013-02-20 18:39:00,40.5,34.5,-100.00,East,90,11.0,18.0,79,0.00,,,0.08,meteohub,2013-02-21 00:39:00,
2013-02-20 18:40:00,40.5,34.5,-100.00,East,86,15.0,18.0,79,0.00,,,0.08,meteohub,2013-02-21 00:40:00,
2013-02-20 18:41:00,40.5,34.5,-100.00,East,86,10.0,16.0,79,0.00,,,0.08,meteohub,2013-02-21 00:41:00,
2013-02-20 18:43:00,40.5,34.5,-100.00,East,80,10.0,16.0,79,0.00,,,0.08,meteohub,2013-02-21 00:43:00,
2013-02-20 18:44:00,40.5,34.2,-100.00,East,81,10.0,16.0,78,0.00,,,0.08,meteohub,2013-02-21 00:44:00,
2013-02-20 18:45:00,40.5,34.2,-100.00,East,90,13.0,17.0,78,0.00,,,0.08,meteohub,2013-02-21 00:45:00,
2013-02-20 18:46:00,40.5,34.2,-100.00,East,82,9.0,17.0,78,0.00,,,0.08,meteohub,2013-02-21 00:46:00,
2013-02-20 18:48:00,40.5,34.5,-100.00,East,82,7.0,17.0,79,0.00,,,0.08,meteohub,2013-02-21 00:48:00,
2013-02-20 18:49:00,40.5,34.5,-100.00,ENE,77,11.0,17.0,79,0.00,,,0.08,meteohub,2013-02-21 00:49:00,
2013-02-20 18:51:00,40.5,34.5,-100.00,ENE,78,11.0,17.0,79,0.00,,,0.08,meteohub,2013-02-21 00:51:00,
2013-02-20 18:52:00,40.5,34.5,-100.00,ENE,78,12.0,17.0,79,0.00,,,0.08,meteohub,2013-02-21 00:52:00,
2013-02-20 18:53:00,40.3,34.3,-100.00,ENE,68,7.0,17.0,79,0.00,,,0.08,meteohub,2013-02-21 00:53:00,
2013-02-20 18:54:00,40.3,34.3,-100.00,East,86,11.0,17.0,79,0.00,,,0.08,meteohub,2013-02-21 00:54:00,
2013-02-20 18:56:00,40.3,34.3,-100.00,East,94,11.0,16.0,79,0.00,,,0.08,meteohub,2013-02-21 00:56:00,
2013-02-20 18:58:00,40.3,34.5,-100.00,ENE,71,11.0,16.0,80,0.00,,,0.08,meteohub,2013-02-21 00:58:00,
2013-02-20 19:00:00,40.3,34.5,-100.00,East,80,11.0,16.0,80,0.00,,,0.08,meteohub,2013-02-21 01:00:00,
2013-02-20 19:02:00,40.1,34.5,-100.00,East,82,12.0,16.0,80,0.00,,,0.08,meteohub,2013-02-21 01:02:00,
2013-02-20 19:03:00,40.1,34.5,-100.00,East,84,10.0,16.0,80,0.00,,,0.08,meteohub,2013-02-21 01:03:00,
2013-02-20 19:05:00,40.1,34.5,-100.00,East,86,13.0,16.0,80,0.00,,,0.08,meteohub,2013-02-21 01:05:00,
2013-02-20 19:07:00,40.1,34.5,-100.00,ENE,78,11.0,16.0,80,0.00,,,0.08,meteohub,2013-02-21 01:07:00,
2013-02-20 19:08:00,39.9,34.3,-100.00,East,97,10.0,16.0,80,0.00,,,0.08,meteohub,2013-02-21 01:08:00,
2013-02-20 19:10:00,39.9,34.3,-100.00,ENE,74,15.0,16.0,80,0.00,,,0.08,meteohub,2013-02-21 01:10:00,
2013-02-20 19:12:00,39.7,35.2,-100.00,ENE,78,8.0,16.0,84,0.00,,,0.08,meteohub,2013-02-21 01:12:00,
2013-02-20 19:13:00,39.7,34.2,-100.00,East,86,10.0,16.0,80,0.00,,,0.08,meteohub,2013-02-21 01:13:00,
2013-02-20 19:16:00,39.6,34.0,-100.00,ESE,105,15.0,18.0,80,0.00,,,0.08,meteohub,2013-02-21 01:16:00,
2013-02-20 19:17:00,39.6,34.0,-100.00,East,79,11.0,18.0,80,0.00,,,0.08,meteohub,2013-02-21 01:17:00,
2013-02-20 19:18:00,39.6,34.0,-100.00,ENE,74,13.0,18.0,80,0.00,,,0.08,meteohub,2013-02-21 01:18:00,
2013-02-20 19:19:00,39.6,34.0,-100.00,East,80,10.0,18.0,80,0.00,,,0.08,meteohub,2013-02-21 01:19:00,
2013-02-20 19:21:00,39.6,34.0,-100.00,East,92,11.0,18.0,80,0.00,,,0.08,meteohub,2013-02-21 01:21:00,
2013-02-20 19:22:00,39.6,34.0,-100.00,East,91,13.0,18.0,80,0.00,,,0.08,meteohub,2013-02-21 01:22:00,
2013-02-20 19:23:00,39.6,34.0,-100.00,East,90,9.0,18.0,80,0.00,,,0.08,meteohub,2013-02-21 01:23:00,
2013-02-20 19:24:00,39.6,34.0,-100.00,East,90,6.0,18.0,80,0.00,,,0.08,meteohub,2013-02-21 01:24:00,
2013-02-20 19:26:00,39.6,34.0,-100.00,East,85,13.0,18.0,80,0.00,,,0.08,meteohub,2013-02-21 01:26:00,
2013-02-20 19:27:00,39.6,34.0,-100.00,East,89,13.0,18.0,80,0.00,,,0.08,meteohub,2013-02-21 01:27:00,
2013-02-20 19:28:00,39.6,34.0,-100.00,East,99,7.0,18.0,80,0.00,,,0.08,meteohub,2013-02-21 01:28:00,
2013-02-20 19:29:00,39.6,34.0,-100.00,East,85,12.0,18.0,80,0.00,,,0.08,meteohub,2013-02-21 01:29:00,
2013-02-20 19:31:00,39.6,34.0,-100.00,East,88,14.0,17.0,80,0.00,,,0.08,meteohub,2013-02-21 01:31:00,
2013-02-20 19:32:00,39.6,34.0,-100.00,East,86,9.0,17.0,80,0.00,,,0.08,meteohub,2013-02-21 01:32:00,
2013-02-20 19:34:00,39.6,34.0,-100.00,East,79,9.0,17.0,80,0.00,,,0.08,meteohub,2013-02-21 01:34:00,
2013-02-20 19:35:00,39.6,33.6,-100.00,East,89,11.0,17.0,79,0.00,,,0.08,meteohub,2013-02-21 01:35:00,
2013-02-20 19:37:00,39.6,34.0,-100.00,East,84,7.0,18.0,80,0.00,,,0.08,meteohub,2013-02-21 01:37:00,
2013-02-20 19:38:00,39.6,34.0,-100.00,ESE,106,6.0,18.0,80,0.00,,,0.08,meteohub,2013-02-21 01:38:00,
2013-02-20 19:40:00,39.6,34.0,-100.00,ESE,111,12.0,18.0,80,0.00,,,0.08,meteohub,2013-02-21 01:40:00,
2013-02-20 19:42:00,39.6,33.6,-100.00,ESE,114,14.0,18.0,79,0.00,,,0.08,meteohub,2013-02-21 01:42:00,
2013-02-20 19:43:00,39.6,33.6,-100.00,East,82,6.0,18.0,79,0.00,,,0.08,meteohub,2013-02-21 01:43:00,
2013-02-20 19:45:00,39.6,34.0,-100.00,East,90,9.0,18.0,80,0.00,,,0.08,meteohub,2013-02-21 01:45:00,
2013-02-20 19:47:00,39.6,34.0,-100.00,ESE,105,11.0,19.0,80,0.00,,,0.08,meteohub,2013-02-21 01:47:00,
2013-02-20 19:48:00,39.6,34.0,-100.00,East,100,11.0,19.0,80,0.00,,,0.08,meteohub,2013-02-21 01:48:00,
2013-02-20 19:50:00,39.6,33.6,-100.00,East,93,9.0,19.0,79,0.00,,,0.08,meteohub,2013-02-21 01:50:00,
2013-02-20 19:51:00,39.6,33.6,-100.00,East,85,11.0,19.0,79,0.00,,,0.08,meteohub,2013-02-21 01:51:00,
2013-02-20 19:52:00,39.6,34.2,-100.00,East,90,12.0,19.0,81,0.00,,,0.08,meteohub,2013-02-21 01:52:00,
2013-02-20 19:53:00,39.6,33.6,-100.00,East,101,15.0,19.0,79,0.00,,,0.08,meteohub,2013-02-21 01:53:00,
2013-02-20 19:55:00,39.6,34.0,-100.00,ESE,113,11.0,19.0,80,0.00,,,0.08,meteohub,2013-02-21 01:55:00,
2013-02-20 19:56:00,39.6,34.0,-100.00,East,86,8.0,19.0,80,0.00,,,0.08,meteohub,2013-02-21 01:56:00,
2013-02-20 19:57:00,39.6,34.0,-100.00,ESE,103,6.0,19.0,80,0.00,,,0.08,meteohub,2013-02-21 01:57:00,
2013-02-20 19:58:00,39.7,34.2,-100.00,East,101,6.0,19.0,80,0.00,,,0.08,meteohub,2013-02-21 01:58:00,
2013-02-20 20:00:00,39.7,33.8,-100.00,ESE,113,19.0,19.0,79,0.00,,,0.08,meteohub,2013-02-21 02:00:00,
2013-02-20 20:01:00,39.7,33.8,-100.00,ESE,121,15.0,18.0,79,0.00,,,0.08,meteohub,2013-02-21 02:01:00,
2013-02-20 20:02:00,39.7,33.8,-100.00,ESE,105,10.0,18.0,79,0.00,,,0.08,meteohub,2013-02-21 02:02:00,
2013-02-20 20:03:00,39.7,33.8,-100.00,ESE,107,11.0,18.0,79,0.00,,,0.08,meteohub,2013-02-21 02:03:00,
2013-02-20 20:05:00,39.7,33.8,-100.00,East,86,7.0,18.0,79,0.00,,,0.08,meteohub,2013-02-21 02:05:00,
2013-02-20 20:06:00,39.7,33.8,-100.00,ESE,115,16.0,19.0,79,0.00,,,0.08,meteohub,2013-02-21 02:06:00,
2013-02-20 20:07:00,39.7,33.8,-100.00,ESE,103,7.0,19.0,79,0.00,,,0.08,meteohub,2013-02-21 02:07:00,
2013-02-20 20:08:00,39.7,33.8,-100.00,ESE,102,10.0,19.0,79,0.00,,,0.08,meteohub,2013-02-21 02:08:00,
2013-02-20 20:10:00,39.9,34.0,-100.00,ESE,103,11.0,19.0,79,0.00,,,0.08,meteohub,2013-02-21 02:10:00,
2013-02-20 20:11:00,39.9,34.0,-100.00,East,94,9.0,19.0,79,0.00,,,0.08,meteohub,2013-02-21 02:11:00,
2013-02-20 20:13:00,39.9,34.0,-100.00,East,94,7.0,19.0,79,0.00,,,0.08,meteohub,2013-02-21 02:13:00,
2013-02-20 20:15:00,39.9,33.6,-100.00,East,99,7.0,18.0,78,0.00,,,0.08,meteohub,2013-02-21 02:15:00,
2013-02-20 20:16:00,39.9,33.6,-100.00,ESE,109,11.0,18.0,78,0.00,,,0.08,meteohub,2013-02-21 02:16:00,
2013-02-20 20:18:00,39.9,33.6,-100.00,East,83,10.0,18.0,78,0.00,,,0.08,meteohub,2013-02-21 02:18:00,
2013-02-20 20:21:00,40.1,33.8,-100.00,East,79,9.0,17.0,78,0.00,,,0.08,meteohub,2013-02-21 02:21:00,
2013-02-20 20:23:00,40.1,33.8,-100.00,East,90,7.0,17.0,78,0.00,,,0.08,meteohub,2013-02-21 02:23:00,
2013-02-20 20:26:00,40.1,33.8,-100.00,ESE,106,9.0,17.0,78,0.00,,,0.08,meteohub,2013-02-21 02:26:00,
2013-02-20 20:27:00,40.1,33.8,-100.00,East,93,6.0,17.0,78,0.00,,,0.08,meteohub,2013-02-21 02:27:00,
2013-02-20 20:29:00,40.1,33.8,-100.00,East,84,9.0,17.0,78,0.00,,,0.08,meteohub,2013-02-21 02:29:00,
2013-02-20 20:32:00,40.3,34.0,-100.00,ESE,115,11.0,17.0,78,0.00,,,0.08,meteohub,2013-02-21 02:32:00,
2013-02-20 20:34:00,40.3,34.0,-100.00,East,95,6.0,17.0,78,0.00,,,0.08,meteohub,2013-02-21 02:34:00,
2013-02-20 20:37:00,40.3,34.0,-100.00,East,94,9.0,15.0,78,0.00,,,0.08,meteohub,2013-02-21 02:37:00,
2013-02-20 20:39:00,40.3,34.0,-100.00,East,96,7.0,15.0,78,0.00,,,0.08,meteohub,2013-02-21 02:39:00,
2013-02-20 20:42:00,40.3,34.0,-100.00,East,99,9.0,15.0,78,0.00,,,0.08,meteohub,2013-02-21 02:42:00,
2013-02-20 20:43:00,40.3,34.0,-100.00,East,99,8.0,15.0,78,0.00,,,0.08,meteohub,2013-02-21 02:43:00,
2013-02-20 20:44:00,40.3,34.0,-100.00,East,99,7.0,15.0,78,0.00,,,0.08,meteohub,2013-02-21 02:44:00,
2013-02-20 20:47:00,40.3,34.0,-100.00,East,84,12.0,15.0,78,0.00,,,0.08,meteohub,2013-02-21 02:47:00,
2013-02-20 20:48:00,40.3,34.0,-100.00,East,99,10.0,15.0,78,0.00,,,0.08,meteohub,2013-02-21 02:48:00,
2013-02-20 20:49:00,40.3,33.6,-100.00,ESE,102,9.0,15.0,77,0.00,,,0.08,meteohub,2013-02-21 02:49:00,
2013-02-20 20:50:00,40.3,33.6,-100.00,East,96,6.0,15.0,77,0.00,,,0.08,meteohub,2013-02-21 02:50:00,
2013-02-20 20:53:00,40.3,34.0,-100.00,East,84,10.0,15.0,78,0.00,,,0.08,meteohub,2013-02-21 02:53:00,
2013-02-20 20:54:00,40.3,33.6,-100.00,East,79,12.0,15.0,77,0.00,,,0.08,meteohub,2013-02-21 02:54:00,
2013-02-20 20:55:00,40.3,33.6,-100.00,East,88,8.0,15.0,77,0.00,,,0.08,meteohub,2013-02-21 02:55:00,
2013-02-20 20:58:00,40.3,33.6,-100.00,East,97,8.0,16.0,77,0.00,,,0.08,meteohub,2013-02-21 02:58:00,
2013-02-20 20:59:00,40.3,33.6,-100.00,East,95,9.0,16.0,77,0.00,,,0.08,meteohub,2013-02-21 02:59:00,
2013-02-20 21:00:00,40.3,33.6,-100.00,ESE,109,10.0,16.0,77,0.00,,,0.08,meteohub,2013-02-21 03:00:00,
2013-02-20 21:03:00,40.3,33.6,-100.00,East,84,11.0,17.0,77,0.00,,,0.08,meteohub,2013-02-21 03:03:00,
2013-02-20 21:04:00,40.3,33.6,-100.00,East,98,12.0,17.0,77,0.00,,,0.08,meteohub,2013-02-21 03:04:00,
2013-02-20 21:05:00,40.3,33.6,-100.00,ESE,107,12.0,17.0,77,0.00,,,0.08,meteohub,2013-02-21 03:05:00,
2013-02-20 21:08:00,40.3,33.6,-100.00,East,87,10.0,17.0,77,0.00,,,0.08,meteohub,2013-02-21 03:08:00,
2013-02-20 21:09:00,40.3,33.6,-100.00,East,97,11.0,17.0,77,0.00,,,0.08,meteohub,2013-02-21 03:09:00,
2013-02-20 21:10:00,40.3,33.6,-100.00,East,90,9.0,17.0,77,0.00,,,0.08,meteohub,2013-02-21 03:10:00,
2013-02-20 21:13:00,40.3,33.6,-100.00,East,97,9.0,17.0,77,0.00,,,0.08,meteohub,2013-02-21 03:13:00,
2013-02-20 21:14:00,40.3,33.6,-100.00,East,92,8.0,17.0,77,0.00,,,0.08,meteohub,2013-02-21 03:14:00,
2013-02-20 21:15:00,40.3,33.6,-100.00,East,86,10.0,17.0,77,0.00,,,0.08,meteohub,2013-02-21 03:15:00,
2013-02-20 21:19:00,40.3,33.6,-100.00,East,101,7.0,17.0,77,0.00,,,0.08,meteohub,2013-02-21 03:19:00,
2013-02-20 21:20:00,40.3,33.6,-100.00,East,96,11.0,17.0,77,0.00,,,0.08,meteohub,2013-02-21 03:20:00,
2013-02-20 21:24:00,40.3,33.6,-100.00,East,97,10.0,17.0,77,0.00,,,0.08,meteohub,2013-02-21 03:24:00,
2013-02-20 21:25:00,40.3,33.6,-100.00,East,80,11.0,17.0,77,0.00,,,0.08,meteohub,2013-02-21 03:25:00,
2013-02-20 21:26:00,40.3,33.6,-100.00,ESE,108,12.0,17.0,77,0.00,,,0.08,meteohub,2013-02-21 03:26:00,
2013-02-20 21:29:00,40.3,33.6,-100.00,East,82,11.0,17.0,77,0.00,,,0.08,meteohub,2013-02-21 03:29:00,
2013-02-20 21:30:00,40.3,33.6,-100.00,ESE,103,8.0,17.0,77,0.00,,,0.08,meteohub,2013-02-21 03:30:00,
2013-02-20 21:31:00,40.3,33.6,-100.00,ESE,109,7.0,17.0,77,0.00,,,0.08,meteohub,2013-02-21 03:31:00,
2013-02-20 21:34:00,40.3,33.6,-100.00,East,80,12.0,17.0,77,0.00,,,0.08,meteohub,2013-02-21 03:34:00,
2013-02-20 21:35:00,40.3,33.6,-100.00,ESE,103,11.0,15.0,77,0.00,,,0.08,meteohub,2013-02-21 03:35:00,
2013-02-20 21:36:00,40.3,33.6,-100.00,East,97,12.0,15.0,77,0.00,,,0.08,meteohub,2013-02-21 03:36:00,
2013-02-20 21:39:00,40.3,33.3,-100.00,East,92,11.0,15.0,76,0.00,,,0.08,meteohub,2013-02-21 03:39:00,
2013-02-20 21:41:00,40.3,33.6,-100.00,East,86,7.0,16.0,77,0.00,,,0.08,meteohub,2013-02-21 03:41:00,
2013-02-20 21:44:00,40.3,33.6,-100.00,East,93,5.0,16.0,77,0.00,,,0.08,meteohub,2013-02-21 03:44:00,
2013-02-20 21:46:00,40.3,33.6,-100.00,East,92,12.0,17.0,77,0.00,,,0.08,meteohub,2013-02-21 03:46:00,
2013-02-20 21:50:00,40.3,33.6,-100.00,East,89,7.0,17.0,77,0.00,,,0.08,meteohub,2013-02-21 03:50:00,
2013-02-20 21:51:00,40.3,33.6,-100.00,East,100,17.0,17.0,77,0.00,,,0.08,meteohub,2013-02-21 03:51:00,
2013-02-20 21:52:00,40.3,33.6,-100.00,East,95,11.0,17.0,77,0.00,,,0.08,meteohub,2013-02-21 03:52:00,
2013-02-20 21:55:00,40.3,33.3,-100.00,East,84,8.0,17.0,76,0.00,,,0.08,meteohub,2013-02-21 03:55:00,
2013-02-20 21:56:00,40.3,33.6,-100.00,East,96,9.0,17.0,77,0.00,,,0.08,meteohub,2013-02-21 03:56:00,
2013-02-20 21:57:00,40.3,33.6,-100.00,East,93,12.0,17.0,77,0.00,,,0.08,meteohub,2013-02-21 03:57:00,
2013-02-20 22:00:00,40.3,33.3,-100.00,East,90,13.0,17.0,76,0.00,,,0.08,meteohub,2013-02-21 04:00:00,
2013-02-20 22:02:00,40.3,33.3,-100.00,East,92,13.0,17.0,76,0.00,,,0.08,meteohub,2013-02-21 04:02:00,
2013-02-20 22:03:00,40.3,33.3,-100.00,East,101,10.0,17.0,76,0.00,,,0.08,meteohub,2013-02-21 04:03:00,
2013-02-20 22:06:00,40.3,33.3,-100.00,East,86,10.0,18.0,76,0.00,,,0.08,meteohub,2013-02-21 04:06:00,
2013-02-20 22:07:00,40.3,33.3,-100.00,ESE,104,12.0,18.0,76,0.00,,,0.08,meteohub,2013-02-21 04:07:00,
2013-02-20 22:08:00,40.3,33.3,-100.00,ESE,106,13.0,18.0,76,0.00,,,0.08,meteohub,2013-02-21 04:08:00,
2013-02-20 22:09:00,40.3,33.3,-100.00,East,100,10.0,18.0,76,0.00,,,0.08,meteohub,2013-02-21 04:09:00,
2013-02-20 22:11:00,40.3,33.3,-100.00,ESE,108,9.0,18.0,76,0.00,,,0.08,meteohub,2013-02-21 04:11:00,
2013-02-20 22:12:00,40.3,33.3,-100.00,ESE,103,8.0,18.0,76,0.00,,,0.08,meteohub,2013-02-21 04:12:00,
2013-02-20 22:14:00,40.3,33.1,-100.00,East,96,10.0,18.0,75,0.00,,,0.08,meteohub,2013-02-21 04:14:00,
2013-02-20 22:16:00,40.3,33.1,-100.00,East,84,7.0,18.0,75,0.00,,,0.08,meteohub,2013-02-21 04:16:00,
2013-02-20 22:17:00,40.3,33.1,-100.00,East,97,13.0,18.0,75,0.00,,,0.08,meteohub,2013-02-21 04:17:00,
2013-02-20 22:19:00,40.5,33.1,-100.00,East,91,9.0,18.0,75,0.00,,,0.08,meteohub,2013-02-21 04:19:00,
2013-02-20 22:22:00,40.5,33.1,-100.00,ESE,110,13.0,17.0,75,0.00,,,0.08,meteohub,2013-02-21 04:22:00,
2013-02-20 22:23:00,40.5,33.1,-100.00,ESE,112,10.0,17.0,75,0.00,,,0.08,meteohub,2013-02-21 04:23:00,
2013-02-20 22:24:00,40.5,33.1,-100.00,East,89,16.0,17.0,75,0.00,,,0.08,meteohub,2013-02-21 04:24:00,
2013-02-20 22:28:00,40.6,33.3,-100.00,East,89,14.0,18.0,75,0.00,,,0.08,meteohub,2013-02-21 04:28:00,
2013-02-20 22:29:00,40.6,33.3,-100.00,East,99,11.0,18.0,75,0.00,,,0.08,meteohub,2013-02-21 04:29:00,
2013-02-20 22:33:00,40.6,33.3,-100.00,East,95,14.0,19.0,75,0.00,,,0.08,meteohub,2013-02-21 04:33:00,
2013-02-20 22:34:00,40.6,33.3,-100.00,ESE,111,11.0,19.0,75,0.00,,,0.08,meteohub,2013-02-21 04:34:00,
2013-02-20 22:35:00,40.6,33.1,-100.00,East,94,16.0,19.0,74,0.00,,,0.08,meteohub,2013-02-21 04:35:00,
2013-02-20 22:38:00,40.6,33.1,-100.00,East,93,13.0,19.0,74,0.00,,,0.08,meteohub,2013-02-21 04:38:00,
2013-02-20 22:39:00,40.8,33.3,-100.00,East,93,13.0,19.0,74,0.00,,,0.08,meteohub,2013-02-21 04:39:00,
2013-02-20 22:40:00,40.8,33.3,-100.00,ESE,105,13.0,19.0,74,0.00,,,0.08,meteohub,2013-02-21 04:40:00,
2013-02-20 22:43:00,40.8,33.3,-100.00,ESE,113,19.0,19.0,74,0.00,,,0.08,meteohub,2013-02-21 04:43:00,
2013-02-20 22:44:00,40.8,33.3,-100.00,ESE,109,11.0,19.0,74,0.00,,,0.08,meteohub,2013-02-21 04:44:00,
2013-02-20 22:45:00,40.8,33.3,-100.00,East,98,11.0,19.0,74,0.00,,,0.08,meteohub,2013-02-21 04:45:00,
2013-02-20 22:49:00,40.8,33.3,-100.00,East,85,14.0,19.0,74,0.00,,,0.08,meteohub,2013-02-21 04:49:00,
2013-02-20 22:50:00,40.8,33.3,-100.00,ESE,105,6.0,19.0,74,0.00,,,0.08,meteohub,2013-02-21 04:50:00,
2013-02-20 22:51:00,40.8,33.3,-100.00,East,92,10.0,19.0,74,0.00,,,0.08,meteohub,2013-02-21 04:51:00,
2013-02-20 22:54:00,40.8,33.3,-100.00,East,94,7.0,19.0,74,0.00,,,0.08,meteohub,2013-02-21 04:54:00,
2013-02-20 22:55:00,40.8,33.3,-100.00,East,86,10.0,19.0,74,0.00,,,0.08,meteohub,2013-02-21 04:55:00,
2013-02-20 22:56:00,40.8,33.3,-100.00,East,101,5.0,19.0,74,0.00,,,0.08,meteohub,2013-02-21 04:56:00,
2013-02-20 23:00:00,41.2,33.4,-100.00,ESE,110,10.0,19.0,74,0.00,,,0.08,meteohub,2013-02-21 05:00:00,
2013-02-20 23:05:00,41.2,33.4,-100.00,East,95,6.0,16.0,74,0.00,,,0.08,meteohub,2013-02-21 05:05:00,
2013-02-20 23:06:00,41.2,33.4,-100.00,East,96,14.0,16.0,74,0.00,,,0.08,meteohub,2013-02-21 05:06:00,
2013-02-20 23:10:00,41.2,33.4,-100.00,ESE,116,14.0,16.0,74,0.00,,,0.08,meteohub,2013-02-21 05:10:00,
2013-02-20 23:11:00,41.4,33.6,-100.00,East,99,10.0,16.0,74,0.00,,,0.08,meteohub,2013-02-21 05:11:00,
2013-02-20 23:15:00,41.5,33.6,-100.00,East,96,6.0,18.0,73,0.00,,,0.08,meteohub,2013-02-21 05:15:00,
2013-02-20 23:16:00,41.5,33.6,-100.00,ESE,105,9.0,18.0,73,0.00,,,0.08,meteohub,2013-02-21 05:16:00,
2013-02-20 23:17:00,41.5,33.6,-100.00,East,93,6.0,18.0,73,0.00,,,0.08,meteohub,2013-02-21 05:17:00,
2013-02-20 23:20:00,41.5,33.6,-100.00,SE,126,10.0,18.0,73,0.00,,,0.08,meteohub,2013-02-21 05:20:00,
2013-02-20 23:21:00,41.5,33.6,-100.00,ESE,115,10.0,18.0,73,0.00,,,0.08,meteohub,2013-02-21 05:21:00,
2013-02-20 23:22:00,41.5,33.6,-100.00,ESE,103,9.0,18.0,73,0.00,,,0.08,meteohub,2013-02-21 05:22:00,
2013-02-20 23:26:00,41.5,33.6,-100.00,ESE,103,15.0,16.0,73,0.00,,,0.08,meteohub,2013-02-21 05:26:00,
2013-02-20 23:27:00,41.5,33.6,-100.00,SE,126,11.0,16.0,73,0.00,,,0.08,meteohub,2013-02-21 05:27:00,
2013-02-20 23:31:00,41.7,33.4,-100.00,ESE,121,13.0,17.0,72,0.00,,,0.08,meteohub,2013-02-21 05:31:00,
2013-02-20 23:32:00,41.7,33.4,-100.00,East,91,12.0,17.0,72,0.00,,,0.08,meteohub,2013-02-21 05:32:00,
2013-02-20 23:36:00,41.7,33.4,-100.00,East,84,12.0,17.0,72,0.00,,,0.08,meteohub,2013-02-21 05:36:00,
2013-02-20 23:37:00,41.7,33.4,-100.00,ESE,111,7.0,17.0,72,0.00,,,0.08,meteohub,2013-02-21 05:37:00,
2013-02-20 23:38:00,41.7,33.4,-100.00,East,96,13.0,17.0,72,0.00,,,0.08,meteohub,2013-02-21 05:38:00,
2013-02-20 23:41:00,41.9,33.3,-100.00,ESE,105,9.0,20.0,71,0.00,,,0.08,meteohub,2013-02-21 05:41:00,
2013-02-20 23:42:00,41.9,33.6,-100.00,ESE,105,10.0,20.0,72,0.00,,,0.08,meteohub,2013-02-21 05:42:00,
2013-02-20 23:43:00,41.9,33.6,-100.00,East,98,9.0,20.0,72,0.00,,,0.08,meteohub,2013-02-21 05:43:00,
2013-02-20 23:46:00,41.9,33.3,-100.00,ESE,109,15.0,20.0,71,0.00,,,0.08,meteohub,2013-02-21 05:46:00,
2013-02-20 23:47:00,41.9,33.3,-100.00,East,101,14.0,20.0,71,0.00,,,0.08,meteohub,2013-02-21 05:47:00,
2013-02-20 23:48:00,41.9,33.3,-100.00,ESE,107,13.0,20.0,71,0.00,,,0.08,meteohub,2013-02-21 05:48:00,
2013-02-20 23:49:00,41.9,33.3,-100.00,ESE,107,9.0,20.0,71,0.00,,,0.08,meteohub,2013-02-21 05:49:00,
2013-02-20 23:52:00,41.9,33.3,-100.00,ESE,119,15.0,18.0,71,0.00,,,0.08,meteohub,2013-02-21 05:52:00,
2013-02-20 23:53:00,42.1,33.4,-100.00,ESE,112,14.0,18.0,71,0.00,,,0.08,meteohub,2013-02-21 05:53:00,
2013-02-20 23:54:00,42.1,33.4,-100.00,ESE,109,8.0,18.0,71,0.00,,,0.08,meteohub,2013-02-21 05:54:00,
2013-02-20 23:57:00,42.1,33.4,-100.00,ESE,106,12.0,18.0,71,0.00,,,0.08,meteohub,2013-02-21 05:57:00,
2013-02-20 23:59:00,42.3,33.6,-100.00,East,96,15.0,18.0,71,0.00,,,0.08,meteohub,2013-02-21 05:59:00,